<?xml version="1.0" encoding="UTF-8"?>
<gpx xmlns="http://www.topografix.com/GPX/1/1" xmlns:gpsies="http://www.gpsies.com/GPX/1/0" creator="GPSies http://www.gpsies.com - Rundweg Lac Blanc - Ch&amp;#226;teau Hans - Soultzeren Eck - Gazon du Faing" version="1.1" xmlns:xsi="http://www.w3.org/2001/XMLSchema-instance" xsi:schemaLocation="http://www.topografix.com/GPX/1/1 http://www.topografix.com/GPX/1/1/gpx.xsd http://www.gpsies.com/GPX/1/0 http://www.gpsies.com/gpsies.xsd">
  <metadata>
    <name>Rundweg Lac Blanc - Château Hans - Soultzeren Eck - Gazon du Faing</name>
    <desc>Eine teils anstrengende Tour, welche viel Trittsicherheit erfordert. Sie belohnt mit jede Menge toller Aussichten und enorm viel Abwechslung. Seen, Felsen, Kletterpartien, Wald, Heidelandschaften... Alles dabei. Für mich eine der schönsten Touren bisher. Würde ich sofort wieder machen!</desc>
    <author>
      <name>FreiwegDE</name>
      <link href="http://www.gpsies.com/mapUser.do?username=FreiwegDE">
        <text>FreiwegDE on GPSies.com</text>
        <type>GPSiesUserOnWeb</type>
      </link>
    </author>
    <link href="http://www.gpsies.com/map.do?fileId=auwuvvqshdksbteh">
      <text>Rundweg Lac Blanc - Château Hans - Soultzeren Eck - Gazon du Faing on GPSies.com</text>
      <type>trackOnWeb</type>
    </link>
    <time>2017-08-25T12:24:08Z</time>
    <extensions>
      <gpsies:property>round trip</gpsies:property>
      <gpsies:trackLengthMeter>10792.614177621583</gpsies:trackLengthMeter>
      <gpsies:totalAscentMeter>414.0</gpsies:totalAscentMeter>
      <gpsies:totalDescentMeter>418.0</gpsies:totalDescentMeter>
      <gpsies:minHeightMeter>1055.0</gpsies:minHeightMeter>
      <gpsies:maxHeightMeter>1303.0</gpsies:maxHeightMeter>
    </extensions>
  </metadata>
  <trk>
    <name>Rundweg Lac Blanc - Château Hans - Soultzeren Eck - Gazon du Faing on GPSies.com</name>
    <link href="http://www.gpsies.com/map.do?fileId=auwuvvqshdksbteh">
      <type>trackOnWeb</type>
    </link>
    <link href="http://www.gpsies.com/charts/au/map/auwuvvqshdksbteh_map.png">
      <type>elevationChartUrlMap</type>
    </link>
    <link href="http://www.gpsies.com/charts/au/mapThumb/auwuvvqshdksbteh_mapThumb.png">
      <type>elevationChartUrlMapThumb</type>
    </link>
    <link href="http://www.gpsies.com/charts/au/tab/auwuvvqshdksbteh_tab.png">
      <type>elevationChartUrlTab</type>
    </link>
    <trkseg>
      <trkpt lat="48.12475760" lon="7.096329770">
        <ele>1061.0000</ele>
        <time>2010-01-01T00:00:00Z</time>
      </trkpt>
      <trkpt lat="48.12476320" lon="7.096593640">
        <ele>1065.0000</ele>
        <time>2010-01-01T00:00:07Z</time>
      </trkpt>
      <trkpt lat="48.12470210" lon="7.096500850">
        <ele>1066.0000</ele>
        <time>2010-01-01T00:00:10Z</time>
      </trkpt>
      <trkpt lat="48.12454690" lon="7.096365400">
        <ele>1074.0000</ele>
        <time>2010-01-01T00:00:17Z</time>
      </trkpt>
      <trkpt lat="48.12444340" lon="7.096149390">
        <ele>1077.0000</ele>
        <time>2010-01-01T00:00:24Z</time>
      </trkpt>
      <trkpt lat="48.12430930" lon="7.095980420">
        <ele>1084.0000</ele>
        <time>2010-01-01T00:00:31Z</time>
      </trkpt>
      <trkpt lat="48.12425320" lon="7.096131540">
        <ele>1088.0000</ele>
        <time>2010-01-01T00:00:36Z</time>
      </trkpt>
      <trkpt lat="48.12410960" lon="7.096063400">
        <ele>1096.0000</ele>
        <time>2010-01-01T00:00:42Z</time>
      </trkpt>
      <trkpt lat="48.12400690" lon="7.096080500">
        <ele>1102.0000</ele>
        <time>2010-01-01T00:00:46Z</time>
      </trkpt>
      <trkpt lat="48.12383470" lon="7.096138250">
        <ele>1109.0000</ele>
        <time>2010-01-01T00:00:53Z</time>
      </trkpt>
      <trkpt lat="48.12365130" lon="7.096108990">
        <ele>1116.0000</ele>
        <time>2010-01-01T00:01:01Z</time>
      </trkpt>
      <trkpt lat="48.12361880" lon="7.095931550">
        <ele>1123.0000</ele>
        <time>2010-01-01T00:01:05Z</time>
      </trkpt>
      <trkpt lat="48.12355450" lon="7.095728040">
        <ele>1128.0000</ele>
        <time>2010-01-01T00:01:12Z</time>
      </trkpt>
      <trkpt lat="48.12355720" lon="7.095618320">
        <ele>1130.0000</ele>
        <time>2010-01-01T00:01:14Z</time>
      </trkpt>
      <trkpt lat="48.12362210" lon="7.095484370">
        <ele>1127.0000</ele>
        <time>2010-01-01T00:01:19Z</time>
      </trkpt>
      <trkpt lat="48.12358930" lon="7.095267280">
        <ele>1128.0000</ele>
        <time>2010-01-01T00:01:25Z</time>
      </trkpt>
      <trkpt lat="48.12344870" lon="7.095104340">
        <ele>1134.0000</ele>
        <time>2010-01-01T00:01:32Z</time>
      </trkpt>
      <trkpt lat="48.12339670" lon="7.094845930">
        <ele>1136.0000</ele>
        <time>2010-01-01T00:01:39Z</time>
      </trkpt>
      <trkpt lat="48.12332720" lon="7.094586760">
        <ele>1140.0000</ele>
        <time>2010-01-01T00:01:47Z</time>
      </trkpt>
      <trkpt lat="48.12338800" lon="7.094439990">
        <ele>1136.0000</ele>
        <time>2010-01-01T00:01:51Z</time>
      </trkpt>
      <trkpt lat="48.12327460" lon="7.094286520">
        <ele>1143.0000</ele>
        <time>2010-01-01T00:01:57Z</time>
      </trkpt>
      <trkpt lat="48.12320390" lon="7.094089710">
        <ele>1148.0000</ele>
        <time>2010-01-01T00:02:03Z</time>
      </trkpt>
      <trkpt lat="48.12313970" lon="7.093970770">
        <ele>1154.0000</ele>
        <time>2010-01-01T00:02:07Z</time>
      </trkpt>
      <trkpt lat="48.12303330" lon="7.093767590">
        <ele>1161.0000</ele>
        <time>2010-01-01T00:02:14Z</time>
      </trkpt>
      <trkpt lat="48.12298480" lon="7.093500710">
        <ele>1160.0000</ele>
        <time>2010-01-01T00:02:22Z</time>
      </trkpt>
      <trkpt lat="48.12295610" lon="7.093250770">
        <ele>1160.0000</ele>
        <time>2010-01-01T00:02:28Z</time>
      </trkpt>
      <trkpt lat="48.12292680" lon="7.093133750">
        <ele>1161.0000</ele>
        <time>2010-01-01T00:02:32Z</time>
      </trkpt>
      <trkpt lat="48.12287920" lon="7.093307260">
        <ele>1166.0000</ele>
        <time>2010-01-01T00:02:37Z</time>
      </trkpt>
      <trkpt lat="48.12280190" lon="7.093332070">
        <ele>1173.0000</ele>
        <time>2010-01-01T00:02:40Z</time>
      </trkpt>
      <trkpt lat="48.12279280" lon="7.093318570">
        <ele>1173.0000</ele>
        <time>2010-01-01T00:02:41Z</time>
      </trkpt>
      <trkpt lat="48.12284210" lon="7.093408010">
        <ele>1170.0000</ele>
        <time>2010-01-01T00:02:44Z</time>
      </trkpt>
      <trkpt lat="48.12276510" lon="7.093640360">
        <ele>1176.0000</ele>
        <time>2010-01-01T00:02:51Z</time>
      </trkpt>
      <trkpt lat="48.12268150" lon="7.093813020">
        <ele>1181.0000</ele>
        <time>2010-01-01T00:02:56Z</time>
      </trkpt>
      <trkpt lat="48.12255680" lon="7.093766840">
        <ele>1186.0000</ele>
        <time>2010-01-01T00:03:01Z</time>
      </trkpt>
      <trkpt lat="48.12258800" lon="7.093611190">
        <ele>1184.0000</ele>
        <time>2010-01-01T00:03:06Z</time>
      </trkpt>
      <trkpt lat="48.12260750" lon="7.093570620">
        <ele>1183.0000</ele>
        <time>2010-01-01T00:03:07Z</time>
      </trkpt>
      <trkpt lat="48.12250620" lon="7.093590400">
        <ele>1187.0000</ele>
        <time>2010-01-01T00:03:11Z</time>
      </trkpt>
      <trkpt lat="48.12264480" lon="7.093492580">
        <ele>1181.0000</ele>
        <time>2010-01-01T00:03:17Z</time>
      </trkpt>
      <trkpt lat="48.12269110" lon="7.093522340">
        <ele>1179.0000</ele>
        <time>2010-01-01T00:03:19Z</time>
      </trkpt>
      <trkpt lat="48.12265070" lon="7.093497780">
        <ele>1181.0000</ele>
        <time>2010-01-01T00:03:21Z</time>
      </trkpt>
      <trkpt lat="48.12253560" lon="7.093408010">
        <ele>1187.0000</ele>
        <time>2010-01-01T00:03:26Z</time>
      </trkpt>
      <trkpt lat="48.12263900" lon="7.093519150">
        <ele>1182.0000</ele>
        <time>2010-01-01T00:03:31Z</time>
      </trkpt>
      <trkpt lat="48.12272530" lon="7.093551510">
        <ele>1178.0000</ele>
        <time>2010-01-01T00:03:35Z</time>
      </trkpt>
      <trkpt lat="48.12255090" lon="7.093578160">
        <ele>1185.0000</ele>
        <time>2010-01-01T00:03:42Z</time>
      </trkpt>
      <trkpt lat="48.12239430" lon="7.093495850">
        <ele>1193.0000</ele>
        <time>2010-01-01T00:03:49Z</time>
      </trkpt>
      <trkpt lat="48.12228760" lon="7.093435250">
        <ele>1199.0000</ele>
        <time>2010-01-01T00:03:53Z</time>
      </trkpt>
      <trkpt lat="48.12214150" lon="7.093374650">
        <ele>1207.0000</ele>
        <time>2010-01-01T00:03:59Z</time>
      </trkpt>
      <trkpt lat="48.12200340" lon="7.093275910">
        <ele>1215.0000</ele>
        <time>2010-01-01T00:04:05Z</time>
      </trkpt>
      <trkpt lat="48.12199010" lon="7.093101650">
        <ele>1218.0000</ele>
        <time>2010-01-01T00:04:10Z</time>
      </trkpt>
      <trkpt lat="48.12189450" lon="7.093010120">
        <ele>1222.0000</ele>
        <time>2010-01-01T00:04:15Z</time>
      </trkpt>
      <trkpt lat="48.12187660" lon="7.092941980">
        <ele>1223.0000</ele>
        <time>2010-01-01T00:04:16Z</time>
      </trkpt>
      <trkpt lat="48.12175410" lon="7.092771490">
        <ele>1228.0000</ele>
        <time>2010-01-01T00:04:23Z</time>
      </trkpt>
      <trkpt lat="48.12167430" lon="7.092600750">
        <ele>1230.0000</ele>
        <time>2010-01-01T00:04:29Z</time>
      </trkpt>
      <trkpt lat="48.12174000" lon="7.092786490">
        <ele>1229.0000</ele>
        <time>2010-01-01T00:04:34Z</time>
      </trkpt>
      <trkpt lat="48.12160380" lon="7.092872320">
        <ele>1232.0000</ele>
        <time>2010-01-01T00:04:40Z</time>
      </trkpt>
      <trkpt lat="48.12146660" lon="7.093029650">
        <ele>1235.0000</ele>
        <time>2010-01-01T00:04:47Z</time>
      </trkpt>
      <trkpt lat="48.12130420" lon="7.093159990">
        <ele>1239.0000</ele>
        <time>2010-01-01T00:04:55Z</time>
      </trkpt>
      <trkpt lat="48.12117230" lon="7.093353780">
        <ele>1240.0000</ele>
        <time>2010-01-01T00:05:02Z</time>
      </trkpt>
      <trkpt lat="48.12107220" lon="7.093569950">
        <ele>1240.0000</ele>
        <time>2010-01-01T00:05:09Z</time>
      </trkpt>
      <trkpt lat="48.12093120" lon="7.093742030">
        <ele>1239.0000</ele>
        <time>2010-01-01T00:05:16Z</time>
      </trkpt>
      <trkpt lat="48.12078970" lon="7.093913350">
        <ele>1239.0000</ele>
        <time>2010-01-01T00:05:24Z</time>
      </trkpt>
      <trkpt lat="48.12066920" lon="7.094111750">
        <ele>1237.0000</ele>
        <time>2010-01-01T00:05:31Z</time>
      </trkpt>
      <trkpt lat="48.12054480" lon="7.094317280">
        <ele>1237.0000</ele>
        <time>2010-01-01T00:05:38Z</time>
      </trkpt>
      <trkpt lat="48.12040000" lon="7.094489690">
        <ele>1238.0000</ele>
        <time>2010-01-01T00:05:46Z</time>
      </trkpt>
      <trkpt lat="48.12024930" lon="7.094648280">
        <ele>1238.0000</ele>
        <time>2010-01-01T00:05:53Z</time>
      </trkpt>
      <trkpt lat="48.12010730" lon="7.094803180">
        <ele>1236.0000</ele>
        <time>2010-01-01T00:06:00Z</time>
      </trkpt>
      <trkpt lat="48.12005690" lon="7.095074920">
        <ele>1231.0000</ele>
        <time>2010-01-01T00:06:08Z</time>
      </trkpt>
      <trkpt lat="48.12003910" lon="7.095268120">
        <ele>1228.0000</ele>
        <time>2010-01-01T00:06:13Z</time>
      </trkpt>
      <trkpt lat="48.12005290" lon="7.095081960">
        <ele>1231.0000</ele>
        <time>2010-01-01T00:06:18Z</time>
      </trkpt>
      <trkpt lat="48.11992640" lon="7.095031000">
        <ele>1232.0000</ele>
        <time>2010-01-01T00:06:23Z</time>
      </trkpt>
      <trkpt lat="48.11976170" lon="7.094922540">
        <ele>1233.0000</ele>
        <time>2010-01-01T00:06:30Z</time>
      </trkpt>
      <trkpt lat="48.11969600" lon="7.094951120">
        <ele>1231.0000</ele>
        <time>2010-01-01T00:06:33Z</time>
      </trkpt>
      <trkpt lat="48.11976080" lon="7.094957820">
        <ele>1232.0000</ele>
        <time>2010-01-01T00:06:36Z</time>
      </trkpt>
      <trkpt lat="48.11965350" lon="7.094799740">
        <ele>1232.0000</ele>
        <time>2010-01-01T00:06:42Z</time>
      </trkpt>
      <trkpt lat="48.11964880" lon="7.094848020">
        <ele>1231.0000</ele>
        <time>2010-01-01T00:06:43Z</time>
      </trkpt>
      <trkpt lat="48.11952330" lon="7.094654310">
        <ele>1230.0000</ele>
        <time>2010-01-01T00:06:50Z</time>
      </trkpt>
      <trkpt lat="48.11940380" lon="7.094512410">
        <ele>1228.0000</ele>
        <time>2010-01-01T00:06:56Z</time>
      </trkpt>
      <trkpt lat="48.11928150" lon="7.094368660">
        <ele>1224.0000</ele>
        <time>2010-01-01T00:07:02Z</time>
      </trkpt>
      <trkpt lat="48.11910060" lon="7.094261460">
        <ele>1217.0000</ele>
        <time>2010-01-01T00:07:10Z</time>
      </trkpt>
      <trkpt lat="48.11912590" lon="7.093984520">
        <ele>1223.0000</ele>
        <time>2010-01-01T00:07:18Z</time>
      </trkpt>
      <trkpt lat="48.11911710" lon="7.093709000">
        <ele>1230.0000</ele>
        <time>2010-01-01T00:07:25Z</time>
      </trkpt>
      <trkpt lat="48.11902870" lon="7.093453770">
        <ele>1234.0000</ele>
        <time>2010-01-01T00:07:33Z</time>
      </trkpt>
      <trkpt lat="48.11899290" lon="7.093191840">
        <ele>1239.0000</ele>
        <time>2010-01-01T00:07:40Z</time>
      </trkpt>
      <trkpt lat="48.11893470" lon="7.092928150">
        <ele>1241.0000</ele>
        <time>2010-01-01T00:07:47Z</time>
      </trkpt>
      <trkpt lat="48.11881300" lon="7.092726390">
        <ele>1238.0000</ele>
        <time>2010-01-01T00:07:55Z</time>
      </trkpt>
      <trkpt lat="48.11873860" lon="7.092477120">
        <ele>1236.0000</ele>
        <time>2010-01-01T00:08:02Z</time>
      </trkpt>
      <trkpt lat="48.11861020" lon="7.092276290">
        <ele>1234.0000</ele>
        <time>2010-01-01T00:08:09Z</time>
      </trkpt>
      <trkpt lat="48.11846660" lon="7.092111580">
        <ele>1232.0000</ele>
        <time>2010-01-01T00:08:16Z</time>
      </trkpt>
      <trkpt lat="48.11833460" lon="7.091920050">
        <ele>1232.0000</ele>
        <time>2010-01-01T00:08:24Z</time>
      </trkpt>
      <trkpt lat="48.11829920" lon="7.091821320">
        <ele>1233.0000</ele>
        <time>2010-01-01T00:08:27Z</time>
      </trkpt>
      <trkpt lat="48.11818490" lon="7.091617720">
        <ele>1234.0000</ele>
        <time>2010-01-01T00:08:34Z</time>
      </trkpt>
      <trkpt lat="48.11806210" lon="7.091397780">
        <ele>1236.0000</ele>
        <time>2010-01-01T00:08:42Z</time>
      </trkpt>
      <trkpt lat="48.11797010" lon="7.091147750">
        <ele>1241.0000</ele>
        <time>2010-01-01T00:08:49Z</time>
      </trkpt>
      <trkpt lat="48.11789550" lon="7.090890670">
        <ele>1246.0000</ele>
        <time>2010-01-01T00:08:57Z</time>
      </trkpt>
      <trkpt lat="48.11781570" lon="7.090663770">
        <ele>1249.0000</ele>
        <time>2010-01-01T00:09:04Z</time>
      </trkpt>
      <trkpt lat="48.11777570" lon="7.090551120">
        <ele>1249.0000</ele>
        <time>2010-01-01T00:09:07Z</time>
      </trkpt>
      <trkpt lat="48.11761880" lon="7.090395390">
        <ele>1247.0000</ele>
        <time>2010-01-01T00:09:15Z</time>
      </trkpt>
      <trkpt lat="48.11757150" lon="7.090365710">
        <ele>1246.0000</ele>
        <time>2010-01-01T00:09:17Z</time>
      </trkpt>
      <trkpt lat="48.11754910" lon="7.090345260">
        <ele>1246.0000</ele>
        <time>2010-01-01T00:09:18Z</time>
      </trkpt>
      <trkpt lat="48.11738070" lon="7.090193970">
        <ele>1243.0000</ele>
        <time>2010-01-01T00:09:25Z</time>
      </trkpt>
      <trkpt lat="48.11724650" lon="7.090008480">
        <ele>1241.0000</ele>
        <time>2010-01-01T00:09:33Z</time>
      </trkpt>
      <trkpt lat="48.11710800" lon="7.089820300">
        <ele>1239.0000</ele>
        <time>2010-01-01T00:09:40Z</time>
      </trkpt>
      <trkpt lat="48.11696340" lon="7.089641600">
        <ele>1238.0000</ele>
        <time>2010-01-01T00:09:48Z</time>
      </trkpt>
      <trkpt lat="48.11682360" lon="7.089479330">
        <ele>1236.0000</ele>
        <time>2010-01-01T00:09:55Z</time>
      </trkpt>
      <trkpt lat="48.11681410" lon="7.089478150">
        <ele>1235.0000</ele>
        <time>2010-01-01T00:09:55Z</time>
      </trkpt>
      <trkpt lat="48.11674380" lon="7.089209010">
        <ele>1236.0000</ele>
        <time>2010-01-01T00:10:03Z</time>
      </trkpt>
      <trkpt lat="48.11670610" lon="7.089026290">
        <ele>1237.0000</ele>
        <time>2010-01-01T00:10:08Z</time>
      </trkpt>
      <trkpt lat="48.11667580" lon="7.088758820">
        <ele>1241.0000</ele>
        <time>2010-01-01T00:10:15Z</time>
      </trkpt>
      <trkpt lat="48.11658340" lon="7.088506780">
        <ele>1244.0000</ele>
        <time>2010-01-01T00:10:23Z</time>
      </trkpt>
      <trkpt lat="48.11647180" lon="7.088303100">
        <ele>1248.0000</ele>
        <time>2010-01-01T00:10:30Z</time>
      </trkpt>
      <trkpt lat="48.11641450" lon="7.088165720">
        <ele>1250.0000</ele>
        <time>2010-01-01T00:10:34Z</time>
      </trkpt>
      <trkpt lat="48.11639200" lon="7.088076950">
        <ele>1253.0000</ele>
        <time>2010-01-01T00:10:37Z</time>
      </trkpt>
      <trkpt lat="48.11637120" lon="7.088143760">
        <ele>1250.0000</ele>
        <time>2010-01-01T00:10:39Z</time>
      </trkpt>
      <trkpt lat="48.11637700" lon="7.088134540">
        <ele>1251.0000</ele>
        <time>2010-01-01T00:10:39Z</time>
      </trkpt>
      <trkpt lat="48.11626250" lon="7.087991960">
        <ele>1250.0000</ele>
        <time>2010-01-01T00:10:45Z</time>
      </trkpt>
      <trkpt lat="48.11629050" lon="7.087866150">
        <ele>1253.0000</ele>
        <time>2010-01-01T00:10:49Z</time>
      </trkpt>
      <trkpt lat="48.11619470" lon="7.087629270">
        <ele>1253.0000</ele>
        <time>2010-01-01T00:10:56Z</time>
      </trkpt>
      <trkpt lat="48.11607540" lon="7.087439760">
        <ele>1251.0000</ele>
        <time>2010-01-01T00:11:03Z</time>
      </trkpt>
      <trkpt lat="48.11603300" lon="7.087182520">
        <ele>1253.0000</ele>
        <time>2010-01-01T00:11:10Z</time>
      </trkpt>
      <trkpt lat="48.11603310" lon="7.086907680">
        <ele>1257.0000</ele>
        <time>2010-01-01T00:11:18Z</time>
      </trkpt>
      <trkpt lat="48.11592840" lon="7.086673900">
        <ele>1256.0000</ele>
        <time>2010-01-01T00:11:25Z</time>
      </trkpt>
      <trkpt lat="48.11589330" lon="7.086464610">
        <ele>1258.0000</ele>
        <time>2010-01-01T00:11:31Z</time>
      </trkpt>
      <trkpt lat="48.11584730" lon="7.086195050">
        <ele>1258.0000</ele>
        <time>2010-01-01T00:11:38Z</time>
      </trkpt>
      <trkpt lat="48.11577570" lon="7.085952310">
        <ele>1258.0000</ele>
        <time>2010-01-01T00:11:45Z</time>
      </trkpt>
      <trkpt lat="48.11568390" lon="7.085702950">
        <ele>1259.0000</ele>
        <time>2010-01-01T00:11:53Z</time>
      </trkpt>
      <trkpt lat="48.11556380" lon="7.085499770">
        <ele>1259.0000</ele>
        <time>2010-01-01T00:12:00Z</time>
      </trkpt>
      <trkpt lat="48.11546440" lon="7.085274880">
        <ele>1258.0000</ele>
        <time>2010-01-01T00:12:07Z</time>
      </trkpt>
      <trkpt lat="48.11538930" lon="7.085069440">
        <ele>1261.0000</ele>
        <time>2010-01-01T00:12:14Z</time>
      </trkpt>
      <trkpt lat="48.11531680" lon="7.084815890">
        <ele>1265.0000</ele>
        <time>2010-01-01T00:12:21Z</time>
      </trkpt>
      <trkpt lat="48.11521630" lon="7.084590250">
        <ele>1268.0000</ele>
        <time>2010-01-01T00:12:28Z</time>
      </trkpt>
      <trkpt lat="48.11508090" lon="7.084449260">
        <ele>1268.0000</ele>
        <time>2010-01-01T00:12:35Z</time>
      </trkpt>
      <trkpt lat="48.11497140" lon="7.084244830">
        <ele>1270.0000</ele>
        <time>2010-01-01T00:12:42Z</time>
      </trkpt>
      <trkpt lat="48.11486810" lon="7.084013240">
        <ele>1272.0000</ele>
        <time>2010-01-01T00:12:49Z</time>
      </trkpt>
      <trkpt lat="48.11473380" lon="7.083821880">
        <ele>1274.0000</ele>
        <time>2010-01-01T00:12:57Z</time>
      </trkpt>
      <trkpt lat="48.11456840" lon="7.083684000">
        <ele>1275.0000</ele>
        <time>2010-01-01T00:13:04Z</time>
      </trkpt>
      <trkpt lat="48.11442990" lon="7.083499510">
        <ele>1277.0000</ele>
        <time>2010-01-01T00:13:12Z</time>
      </trkpt>
      <trkpt lat="48.11429560" lon="7.083319220">
        <ele>1278.0000</ele>
        <time>2010-01-01T00:13:19Z</time>
      </trkpt>
      <trkpt lat="48.11417260" lon="7.083108080">
        <ele>1280.0000</ele>
        <time>2010-01-01T00:13:26Z</time>
      </trkpt>
      <trkpt lat="48.11407430" lon="7.082889890">
        <ele>1280.0000</ele>
        <time>2010-01-01T00:13:34Z</time>
      </trkpt>
      <trkpt lat="48.11392580" lon="7.082735840">
        <ele>1278.0000</ele>
        <time>2010-01-01T00:13:41Z</time>
      </trkpt>
      <trkpt lat="48.11386870" lon="7.082471890">
        <ele>1280.0000</ele>
        <time>2010-01-01T00:13:48Z</time>
      </trkpt>
      <trkpt lat="48.11372060" lon="7.082304250">
        <ele>1280.0000</ele>
        <time>2010-01-01T00:13:56Z</time>
      </trkpt>
      <trkpt lat="48.11358320" lon="7.082144830">
        <ele>1281.0000</ele>
        <time>2010-01-01T00:14:03Z</time>
      </trkpt>
      <trkpt lat="48.11369020" lon="7.082202080">
        <ele>1282.0000</ele>
        <time>2010-01-01T00:14:07Z</time>
      </trkpt>
      <trkpt lat="48.11357190" lon="7.082100070">
        <ele>1281.0000</ele>
        <time>2010-01-01T00:14:13Z</time>
      </trkpt>
      <trkpt lat="48.11342590" lon="7.081942150">
        <ele>1282.0000</ele>
        <time>2010-01-01T00:14:20Z</time>
      </trkpt>
      <trkpt lat="48.11342930" lon="7.081924130">
        <ele>1283.0000</ele>
        <time>2010-01-01T00:14:20Z</time>
      </trkpt>
      <trkpt lat="48.11330780" lon="7.081827320">
        <ele>1283.0000</ele>
        <time>2010-01-01T00:14:26Z</time>
      </trkpt>
      <trkpt lat="48.11312820" lon="7.081761770">
        <ele>1286.0000</ele>
        <time>2010-01-01T00:14:33Z</time>
      </trkpt>
      <trkpt lat="48.11294860" lon="7.081724730">
        <ele>1288.0000</ele>
        <time>2010-01-01T00:14:40Z</time>
      </trkpt>
      <trkpt lat="48.11276430" lon="7.081702770">
        <ele>1289.0000</ele>
        <time>2010-01-01T00:14:48Z</time>
      </trkpt>
      <trkpt lat="48.11258710" lon="7.081659260">
        <ele>1290.0000</ele>
        <time>2010-01-01T00:14:55Z</time>
      </trkpt>
      <trkpt lat="48.11239800" lon="7.081642580">
        <ele>1289.0000</ele>
        <time>2010-01-01T00:15:03Z</time>
      </trkpt>
      <trkpt lat="48.11221730" lon="7.081591710">
        <ele>1288.0000</ele>
        <time>2010-01-01T00:15:10Z</time>
      </trkpt>
      <trkpt lat="48.11204020" lon="7.081516940">
        <ele>1288.0000</ele>
        <time>2010-01-01T00:15:17Z</time>
      </trkpt>
      <trkpt lat="48.11185680" lon="7.081487270">
        <ele>1288.0000</ele>
        <time>2010-01-01T00:15:25Z</time>
      </trkpt>
      <trkpt lat="48.11167270" lon="7.081475450">
        <ele>1288.0000</ele>
        <time>2010-01-01T00:15:32Z</time>
      </trkpt>
      <trkpt lat="48.11149240" lon="7.081473520">
        <ele>1286.0000</ele>
        <time>2010-01-01T00:15:39Z</time>
      </trkpt>
      <trkpt lat="48.11130880" lon="7.081446780">
        <ele>1284.0000</ele>
        <time>2010-01-01T00:15:47Z</time>
      </trkpt>
      <trkpt lat="48.11112500" lon="7.081457430">
        <ele>1282.0000</ele>
        <time>2010-01-01T00:15:54Z</time>
      </trkpt>
      <trkpt lat="48.11094250" lon="7.081455420">
        <ele>1281.0000</ele>
        <time>2010-01-01T00:16:01Z</time>
      </trkpt>
      <trkpt lat="48.11075860" lon="7.081459520">
        <ele>1279.0000</ele>
        <time>2010-01-01T00:16:09Z</time>
      </trkpt>
      <trkpt lat="48.11057020" lon="7.081481320">
        <ele>1278.0000</ele>
        <time>2010-01-01T00:16:16Z</time>
      </trkpt>
      <trkpt lat="48.11038930" lon="7.081440080">
        <ele>1278.0000</ele>
        <time>2010-01-01T00:16:24Z</time>
      </trkpt>
      <trkpt lat="48.11038200" lon="7.081441840">
        <ele>1277.0000</ele>
        <time>2010-01-01T00:16:24Z</time>
      </trkpt>
      <trkpt lat="48.11020390" lon="7.081480310">
        <ele>1276.0000</ele>
        <time>2010-01-01T00:16:31Z</time>
      </trkpt>
      <trkpt lat="48.11002080" lon="7.081487770">
        <ele>1275.0000</ele>
        <time>2010-01-01T00:16:38Z</time>
      </trkpt>
      <trkpt lat="48.10986510" lon="7.081528590">
        <ele>1274.0000</ele>
        <time>2010-01-01T00:16:45Z</time>
      </trkpt>
      <trkpt lat="48.10973560" lon="7.081519370">
        <ele>1274.0000</ele>
        <time>2010-01-01T00:16:50Z</time>
      </trkpt>
      <trkpt lat="48.10956420" lon="7.081579640">
        <ele>1273.0000</ele>
        <time>2010-01-01T00:16:57Z</time>
      </trkpt>
      <trkpt lat="48.10945850" lon="7.081579220">
        <ele>1272.0000</ele>
        <time>2010-01-01T00:17:01Z</time>
      </trkpt>
      <trkpt lat="48.10938730" lon="7.081628420">
        <ele>1272.0000</ele>
        <time>2010-01-01T00:17:04Z</time>
      </trkpt>
      <trkpt lat="48.10940740" lon="7.081612070">
        <ele>1272.0000</ele>
        <time>2010-01-01T00:17:05Z</time>
      </trkpt>
      <trkpt lat="48.10927360" lon="7.081790940">
        <ele>1271.0000</ele>
        <time>2010-01-01T00:17:12Z</time>
      </trkpt>
      <trkpt lat="48.10913790" lon="7.081971490">
        <ele>1270.0000</ele>
        <time>2010-01-01T00:17:20Z</time>
      </trkpt>
      <trkpt lat="48.10902660" lon="7.082155810">
        <ele>1269.0000</ele>
        <time>2010-01-01T00:17:26Z</time>
      </trkpt>
      <trkpt lat="48.10891150" lon="7.082371810">
        <ele>1267.0000</ele>
        <time>2010-01-01T00:17:34Z</time>
      </trkpt>
      <trkpt lat="48.10887210" lon="7.082450260">
        <ele>1266.0000</ele>
        <time>2010-01-01T00:17:36Z</time>
      </trkpt>
      <trkpt lat="48.10873810" lon="7.082641370">
        <ele>1263.0000</ele>
        <time>2010-01-01T00:17:44Z</time>
      </trkpt>
      <trkpt lat="48.10865940" lon="7.082672470">
        <ele>1263.0000</ele>
        <time>2010-01-01T00:17:47Z</time>
      </trkpt>
      <trkpt lat="48.10860190" lon="7.082469290">
        <ele>1265.0000</ele>
        <time>2010-01-01T00:17:53Z</time>
      </trkpt>
      <trkpt lat="48.10851800" lon="7.082217500">
        <ele>1269.0000</ele>
        <time>2010-01-01T00:18:00Z</time>
      </trkpt>
      <trkpt lat="48.10845510" lon="7.081956900">
        <ele>1272.0000</ele>
        <time>2010-01-01T00:18:08Z</time>
      </trkpt>
      <trkpt lat="48.10831110" lon="7.081796730">
        <ele>1272.0000</ele>
        <time>2010-01-01T00:18:15Z</time>
      </trkpt>
      <trkpt lat="48.10814650" lon="7.081656670">
        <ele>1271.0000</ele>
        <time>2010-01-01T00:18:23Z</time>
      </trkpt>
      <trkpt lat="48.10809430" lon="7.081610980">
        <ele>1271.0000</ele>
        <time>2010-01-01T00:18:25Z</time>
      </trkpt>
      <trkpt lat="48.10809960" lon="7.081619700">
        <ele>1271.0000</ele>
        <time>2010-01-01T00:18:25Z</time>
      </trkpt>
      <trkpt lat="48.10815210" lon="7.081456420">
        <ele>1271.0000</ele>
        <time>2010-01-01T00:18:30Z</time>
      </trkpt>
      <trkpt lat="48.10828060" lon="7.081248550">
        <ele>1271.0000</ele>
        <time>2010-01-01T00:18:38Z</time>
      </trkpt>
      <trkpt lat="48.10839310" lon="7.081041600">
        <ele>1271.0000</ele>
        <time>2010-01-01T00:18:45Z</time>
      </trkpt>
      <trkpt lat="48.10848260" lon="7.080797690">
        <ele>1272.0000</ele>
        <time>2010-01-01T00:18:52Z</time>
      </trkpt>
      <trkpt lat="48.10856290" lon="7.080550760">
        <ele>1275.0000</ele>
        <time>2010-01-01T00:19:00Z</time>
      </trkpt>
      <trkpt lat="48.10867770" lon="7.080327630">
        <ele>1279.0000</ele>
        <time>2010-01-01T00:19:07Z</time>
      </trkpt>
      <trkpt lat="48.10871810" lon="7.080071730">
        <ele>1281.0000</ele>
        <time>2010-01-01T00:19:14Z</time>
      </trkpt>
      <trkpt lat="48.10871430" lon="7.080069720">
        <ele>1281.0000</ele>
        <time>2010-01-01T00:19:14Z</time>
      </trkpt>
      <trkpt lat="48.10875960" lon="7.079824130">
        <ele>1283.0000</ele>
        <time>2010-01-01T00:19:21Z</time>
      </trkpt>
      <trkpt lat="48.10885970" lon="7.079593120">
        <ele>1285.0000</ele>
        <time>2010-01-01T00:19:29Z</time>
      </trkpt>
      <trkpt lat="48.10896550" lon="7.079371670">
        <ele>1288.0000</ele>
        <time>2010-01-01T00:19:36Z</time>
      </trkpt>
      <trkpt lat="48.10905820" lon="7.079139910">
        <ele>1290.0000</ele>
        <time>2010-01-01T00:19:43Z</time>
      </trkpt>
      <trkpt lat="48.10907090" lon="7.078852500">
        <ele>1291.0000</ele>
        <time>2010-01-01T00:19:51Z</time>
      </trkpt>
      <trkpt lat="48.10901730" lon="7.078600460">
        <ele>1292.0000</ele>
        <time>2010-01-01T00:19:58Z</time>
      </trkpt>
      <trkpt lat="48.10896540" lon="7.078332150">
        <ele>1293.0000</ele>
        <time>2010-01-01T00:20:05Z</time>
      </trkpt>
      <trkpt lat="48.10889540" lon="7.078084970">
        <ele>1293.0000</ele>
        <time>2010-01-01T00:20:13Z</time>
      </trkpt>
      <trkpt lat="48.10882110" lon="7.077833510">
        <ele>1293.0000</ele>
        <time>2010-01-01T00:20:20Z</time>
      </trkpt>
      <trkpt lat="48.10876400" lon="7.077572160">
        <ele>1294.0000</ele>
        <time>2010-01-01T00:20:27Z</time>
      </trkpt>
      <trkpt lat="48.10871150" lon="7.077318110">
        <ele>1295.0000</ele>
        <time>2010-01-01T00:20:34Z</time>
      </trkpt>
      <trkpt lat="48.10862980" lon="7.077117110">
        <ele>1297.0000</ele>
        <time>2010-01-01T00:20:41Z</time>
      </trkpt>
      <trkpt lat="48.10859080" lon="7.076850310">
        <ele>1298.0000</ele>
        <time>2010-01-01T00:20:48Z</time>
      </trkpt>
      <trkpt lat="48.10850850" lon="7.076616040">
        <ele>1299.0000</ele>
        <time>2010-01-01T00:20:55Z</time>
      </trkpt>
      <trkpt lat="48.10834900" lon="7.076500710">
        <ele>1299.0000</ele>
        <time>2010-01-01T00:21:02Z</time>
      </trkpt>
      <trkpt lat="48.10817620" lon="7.076396430">
        <ele>1297.0000</ele>
        <time>2010-01-01T00:21:10Z</time>
      </trkpt>
      <trkpt lat="48.10802470" lon="7.076232320">
        <ele>1295.0000</ele>
        <time>2010-01-01T00:21:17Z</time>
      </trkpt>
      <trkpt lat="48.10800650" lon="7.076213460">
        <ele>1295.0000</ele>
        <time>2010-01-01T00:21:18Z</time>
      </trkpt>
      <trkpt lat="48.10783880" lon="7.076119920">
        <ele>1292.0000</ele>
        <time>2010-01-01T00:21:25Z</time>
      </trkpt>
      <trkpt lat="48.10784080" lon="7.075920930">
        <ele>1291.0000</ele>
        <time>2010-01-01T00:21:30Z</time>
      </trkpt>
      <trkpt lat="48.10785350" lon="7.075901650">
        <ele>1291.0000</ele>
        <time>2010-01-01T00:21:31Z</time>
      </trkpt>
      <trkpt lat="48.10792510" lon="7.075772900">
        <ele>1291.0000</ele>
        <time>2010-01-01T00:21:36Z</time>
      </trkpt>
      <trkpt lat="48.10795110" lon="7.075732420">
        <ele>1291.0000</ele>
        <time>2010-01-01T00:21:37Z</time>
      </trkpt>
      <trkpt lat="48.10811980" lon="7.075635190">
        <ele>1293.0000</ele>
        <time>2010-01-01T00:21:44Z</time>
      </trkpt>
      <trkpt lat="48.10815940" lon="7.075397230">
        <ele>1290.0000</ele>
        <time>2010-01-01T00:21:51Z</time>
      </trkpt>
      <trkpt lat="48.10820770" lon="7.075294630">
        <ele>1288.0000</ele>
        <time>2010-01-01T00:21:54Z</time>
      </trkpt>
      <trkpt lat="48.10820440" lon="7.075265040">
        <ele>1288.0000</ele>
        <time>2010-01-01T00:21:55Z</time>
      </trkpt>
      <trkpt lat="48.10825180" lon="7.075032870">
        <ele>1284.0000</ele>
        <time>2010-01-01T00:22:02Z</time>
      </trkpt>
      <trkpt lat="48.10833570" lon="7.074782330">
        <ele>1281.0000</ele>
        <time>2010-01-01T00:22:09Z</time>
      </trkpt>
      <trkpt lat="48.10837280" lon="7.074516120">
        <ele>1279.0000</ele>
        <time>2010-01-01T00:22:16Z</time>
      </trkpt>
      <trkpt lat="48.10837280" lon="7.074239440">
        <ele>1280.0000</ele>
        <time>2010-01-01T00:22:24Z</time>
      </trkpt>
      <trkpt lat="48.10828620" lon="7.073996530">
        <ele>1279.0000</ele>
        <time>2010-01-01T00:22:31Z</time>
      </trkpt>
      <trkpt lat="48.10819560" lon="7.073761580">
        <ele>1274.0000</ele>
        <time>2010-01-01T00:22:38Z</time>
      </trkpt>
      <trkpt lat="48.10818750" lon="7.073612390">
        <ele>1271.0000</ele>
        <time>2010-01-01T00:22:42Z</time>
      </trkpt>
      <trkpt lat="48.10820800" lon="7.073346680">
        <ele>1269.0000</ele>
        <time>2010-01-01T00:22:49Z</time>
      </trkpt>
      <trkpt lat="48.10822410" lon="7.073081060">
        <ele>1269.0000</ele>
        <time>2010-01-01T00:22:57Z</time>
      </trkpt>
      <trkpt lat="48.10824270" lon="7.072808060">
        <ele>1270.0000</ele>
        <time>2010-01-01T00:23:04Z</time>
      </trkpt>
      <trkpt lat="48.10823740" lon="7.072750220">
        <ele>1271.0000</ele>
        <time>2010-01-01T00:23:05Z</time>
      </trkpt>
      <trkpt lat="48.10820530" lon="7.072478820">
        <ele>1273.0000</ele>
        <time>2010-01-01T00:23:13Z</time>
      </trkpt>
      <trkpt lat="48.10809070" lon="7.072260970">
        <ele>1278.0000</ele>
        <time>2010-01-01T00:23:20Z</time>
      </trkpt>
      <trkpt lat="48.10797490" lon="7.072046390">
        <ele>1282.0000</ele>
        <time>2010-01-01T00:23:28Z</time>
      </trkpt>
      <trkpt lat="48.10793190" lon="7.071786890">
        <ele>1284.0000</ele>
        <time>2010-01-01T00:23:35Z</time>
      </trkpt>
      <trkpt lat="48.10785720" lon="7.071556300">
        <ele>1284.0000</ele>
        <time>2010-01-01T00:23:42Z</time>
      </trkpt>
      <trkpt lat="48.10775410" lon="7.071347260">
        <ele>1285.0000</ele>
        <time>2010-01-01T00:23:49Z</time>
      </trkpt>
      <trkpt lat="48.10757210" lon="7.071373080">
        <ele>1285.0000</ele>
        <time>2010-01-01T00:23:56Z</time>
      </trkpt>
      <trkpt lat="48.10748020" lon="7.071602240">
        <ele>1281.0000</ele>
        <time>2010-01-01T00:24:03Z</time>
      </trkpt>
      <trkpt lat="48.10747380" lon="7.071736520">
        <ele>1278.0000</ele>
        <time>2010-01-01T00:24:07Z</time>
      </trkpt>
      <trkpt lat="48.10748320" lon="7.071697870">
        <ele>1279.0000</ele>
        <time>2010-01-01T00:24:08Z</time>
      </trkpt>
      <trkpt lat="48.10655490" lon="7.070340840">
        <ele>1293.0000</ele>
        <time>2010-01-01T00:25:00Z</time>
      </trkpt>
      <trkpt lat="48.10650990" lon="7.070279820">
        <ele>1294.0000</ele>
        <time>2010-01-01T00:25:02Z</time>
      </trkpt>
      <trkpt lat="48.10634320" lon="7.070154680">
        <ele>1293.0000</ele>
        <time>2010-01-01T00:25:10Z</time>
      </trkpt>
      <trkpt lat="48.10617900" lon="7.070064830">
        <ele>1291.0000</ele>
        <time>2010-01-01T00:25:17Z</time>
      </trkpt>
      <trkpt lat="48.10612230" lon="7.070032060">
        <ele>1291.0000</ele>
        <time>2010-01-01T00:25:19Z</time>
      </trkpt>
      <trkpt lat="48.10595490" lon="7.069920070">
        <ele>1289.0000</ele>
        <time>2010-01-01T00:25:26Z</time>
      </trkpt>
      <trkpt lat="48.10582260" lon="7.069768610">
        <ele>1290.0000</ele>
        <time>2010-01-01T00:25:33Z</time>
      </trkpt>
      <trkpt lat="48.10585060" lon="7.069501730">
        <ele>1290.0000</ele>
        <time>2010-01-01T00:25:40Z</time>
      </trkpt>
      <trkpt lat="48.10586710" lon="7.069222030">
        <ele>1287.0000</ele>
        <time>2010-01-01T00:25:48Z</time>
      </trkpt>
      <trkpt lat="48.10583290" lon="7.068948950">
        <ele>1286.0000</ele>
        <time>2010-01-01T00:25:55Z</time>
      </trkpt>
      <trkpt lat="48.10585660" lon="7.068687350">
        <ele>1285.0000</ele>
        <time>2010-01-01T00:26:02Z</time>
      </trkpt>
      <trkpt lat="48.10597160" lon="7.068477300">
        <ele>1284.0000</ele>
        <time>2010-01-01T00:26:09Z</time>
      </trkpt>
      <trkpt lat="48.10606610" lon="7.068246960">
        <ele>1282.0000</ele>
        <time>2010-01-01T00:26:17Z</time>
      </trkpt>
      <trkpt lat="48.10616100" lon="7.068018390">
        <ele>1279.0000</ele>
        <time>2010-01-01T00:26:24Z</time>
      </trkpt>
      <trkpt lat="48.10627390" lon="7.067810930">
        <ele>1277.0000</ele>
        <time>2010-01-01T00:26:31Z</time>
      </trkpt>
      <trkpt lat="48.10642370" lon="7.067643880">
        <ele>1275.0000</ele>
        <time>2010-01-01T00:26:39Z</time>
      </trkpt>
      <trkpt lat="48.10658270" lon="7.067518150">
        <ele>1272.0000</ele>
        <time>2010-01-01T00:26:46Z</time>
      </trkpt>
      <trkpt lat="48.10674180" lon="7.067396870">
        <ele>1270.0000</ele>
        <time>2010-01-01T00:26:53Z</time>
      </trkpt>
      <trkpt lat="48.10688840" lon="7.067252360">
        <ele>1268.0000</ele>
        <time>2010-01-01T00:27:00Z</time>
      </trkpt>
      <trkpt lat="48.10703770" lon="7.067085230">
        <ele>1266.0000</ele>
        <time>2010-01-01T00:27:07Z</time>
      </trkpt>
      <trkpt lat="48.10717840" lon="7.066906110">
        <ele>1263.0000</ele>
        <time>2010-01-01T00:27:15Z</time>
      </trkpt>
      <trkpt lat="48.10729140" lon="7.066688180">
        <ele>1260.0000</ele>
        <time>2010-01-01T00:27:22Z</time>
      </trkpt>
      <trkpt lat="48.10740990" lon="7.066475030">
        <ele>1257.0000</ele>
        <time>2010-01-01T00:27:30Z</time>
      </trkpt>
      <trkpt lat="48.10751140" lon="7.066253740">
        <ele>1254.0000</ele>
        <time>2010-01-01T00:27:37Z</time>
      </trkpt>
      <trkpt lat="48.10761020" lon="7.066027010">
        <ele>1252.0000</ele>
        <time>2010-01-01T00:27:44Z</time>
      </trkpt>
      <trkpt lat="48.10772700" lon="7.065812940">
        <ele>1250.0000</ele>
        <time>2010-01-01T00:27:51Z</time>
      </trkpt>
      <trkpt lat="48.10785010" lon="7.065615380">
        <ele>1247.0000</ele>
        <time>2010-01-01T00:27:59Z</time>
      </trkpt>
      <trkpt lat="48.10797800" lon="7.065418070">
        <ele>1243.0000</ele>
        <time>2010-01-01T00:28:06Z</time>
      </trkpt>
      <trkpt lat="48.10812120" lon="7.065236350">
        <ele>1240.0000</ele>
        <time>2010-01-01T00:28:13Z</time>
      </trkpt>
      <trkpt lat="48.10827650" lon="7.065092010">
        <ele>1236.0000</ele>
        <time>2010-01-01T00:28:21Z</time>
      </trkpt>
      <trkpt lat="48.10842180" lon="7.064931250">
        <ele>1233.0000</ele>
        <time>2010-01-01T00:28:28Z</time>
      </trkpt>
      <trkpt lat="48.10856490" lon="7.064780630">
        <ele>1231.0000</ele>
        <time>2010-01-01T00:28:35Z</time>
      </trkpt>
      <trkpt lat="48.10874110" lon="7.064731510">
        <ele>1229.0000</ele>
        <time>2010-01-01T00:28:42Z</time>
      </trkpt>
      <trkpt lat="48.10889390" lon="7.064635120">
        <ele>1227.0000</ele>
        <time>2010-01-01T00:28:49Z</time>
      </trkpt>
      <trkpt lat="48.10901550" lon="7.064713910">
        <ele>1227.0000</ele>
        <time>2010-01-01T00:28:54Z</time>
      </trkpt>
      <trkpt lat="48.10889270" lon="7.064754560">
        <ele>1228.0000</ele>
        <time>2010-01-01T00:28:59Z</time>
      </trkpt>
      <trkpt lat="48.10906280" lon="7.064601340">
        <ele>1225.0000</ele>
        <time>2010-01-01T00:29:07Z</time>
      </trkpt>
      <trkpt lat="48.10903780" lon="7.064543080">
        <ele>1225.0000</ele>
        <time>2010-01-01T00:29:09Z</time>
      </trkpt>
      <trkpt lat="48.10894390" lon="7.064574010">
        <ele>1226.0000</ele>
        <time>2010-01-01T00:29:13Z</time>
      </trkpt>
      <trkpt lat="48.10894880" lon="7.064594210">
        <ele>1226.0000</ele>
        <time>2010-01-01T00:29:13Z</time>
      </trkpt>
      <trkpt lat="48.10893690" lon="7.064590690">
        <ele>1227.0000</ele>
        <time>2010-01-01T00:29:14Z</time>
      </trkpt>
      <trkpt lat="48.10895090" lon="7.064571660">
        <ele>1226.0000</ele>
        <time>2010-01-01T00:29:15Z</time>
      </trkpt>
      <trkpt lat="48.10894440" lon="7.064587000">
        <ele>1226.0000</ele>
        <time>2010-01-01T00:29:15Z</time>
      </trkpt>
      <trkpt lat="48.10894510" lon="7.064579210">
        <ele>1226.0000</ele>
        <time>2010-01-01T00:29:15Z</time>
      </trkpt>
      <trkpt lat="48.10894620" lon="7.064755560">
        <ele>1227.0000</ele>
        <time>2010-01-01T00:29:20Z</time>
      </trkpt>
      <trkpt lat="48.10894300" lon="7.064727570">
        <ele>1227.0000</ele>
        <time>2010-01-01T00:29:21Z</time>
      </trkpt>
      <trkpt lat="48.10891630" lon="7.064569320">
        <ele>1227.0000</ele>
        <time>2010-01-01T00:29:25Z</time>
      </trkpt>
      <trkpt lat="48.10892000" lon="7.064555240">
        <ele>1227.0000</ele>
        <time>2010-01-01T00:29:26Z</time>
      </trkpt>
      <trkpt lat="48.10892980" lon="7.064559010">
        <ele>1226.0000</ele>
        <time>2010-01-01T00:29:26Z</time>
      </trkpt>
      <trkpt lat="48.10893940" lon="7.064540060">
        <ele>1226.0000</ele>
        <time>2010-01-01T00:29:27Z</time>
      </trkpt>
      <trkpt lat="48.10891520" lon="7.064534780">
        <ele>1227.0000</ele>
        <time>2010-01-01T00:29:28Z</time>
      </trkpt>
      <trkpt lat="48.10892460" lon="7.064523130">
        <ele>1226.0000</ele>
        <time>2010-01-01T00:29:28Z</time>
      </trkpt>
      <trkpt lat="48.10891490" lon="7.064519530">
        <ele>1226.0000</ele>
        <time>2010-01-01T00:29:28Z</time>
      </trkpt>
      <trkpt lat="48.10888430" lon="7.064602010">
        <ele>1227.0000</ele>
        <time>2010-01-01T00:29:31Z</time>
      </trkpt>
      <trkpt lat="48.10898450" lon="7.064636040">
        <ele>1226.0000</ele>
        <time>2010-01-01T00:29:35Z</time>
      </trkpt>
      <trkpt lat="48.10889180" lon="7.064484410">
        <ele>1227.0000</ele>
        <time>2010-01-01T00:29:41Z</time>
      </trkpt>
      <trkpt lat="48.10893170" lon="7.064555910">
        <ele>1226.0000</ele>
        <time>2010-01-01T00:29:43Z</time>
      </trkpt>
      <trkpt lat="48.10903580" lon="7.064620200">
        <ele>1226.0000</ele>
        <time>2010-01-01T00:29:48Z</time>
      </trkpt>
      <trkpt lat="48.10912700" lon="7.064760260">
        <ele>1226.0000</ele>
        <time>2010-01-01T00:29:53Z</time>
      </trkpt>
      <trkpt lat="48.10895340" lon="7.064668560">
        <ele>1227.0000</ele>
        <time>2010-01-01T00:30:00Z</time>
      </trkpt>
      <trkpt lat="48.10896920" lon="7.064691110">
        <ele>1227.0000</ele>
        <time>2010-01-01T00:30:01Z</time>
      </trkpt>
      <trkpt lat="48.10899660" lon="7.064587420">
        <ele>1226.0000</ele>
        <time>2010-01-01T00:30:04Z</time>
      </trkpt>
      <trkpt lat="48.10881480" lon="7.064627320">
        <ele>1228.0000</ele>
        <time>2010-01-01T00:30:11Z</time>
      </trkpt>
      <trkpt lat="48.10865380" lon="7.064678530">
        <ele>1229.0000</ele>
        <time>2010-01-01T00:30:18Z</time>
      </trkpt>
      <trkpt lat="48.10851490" lon="7.064770060">
        <ele>1231.0000</ele>
        <time>2010-01-01T00:30:24Z</time>
      </trkpt>
      <trkpt lat="48.10866450" lon="7.064731590">
        <ele>1229.0000</ele>
        <time>2010-01-01T00:30:30Z</time>
      </trkpt>
      <trkpt lat="48.10859700" lon="7.064978190">
        <ele>1232.0000</ele>
        <time>2010-01-01T00:30:37Z</time>
      </trkpt>
      <trkpt lat="48.10855250" lon="7.065229560">
        <ele>1234.0000</ele>
        <time>2010-01-01T00:30:44Z</time>
      </trkpt>
      <trkpt lat="48.10853330" lon="7.065510770">
        <ele>1236.0000</ele>
        <time>2010-01-01T00:30:52Z</time>
      </trkpt>
      <trkpt lat="48.10854760" lon="7.065783520">
        <ele>1237.0000</ele>
        <time>2010-01-01T00:30:59Z</time>
      </trkpt>
      <trkpt lat="48.10867170" lon="7.065971020">
        <ele>1237.0000</ele>
        <time>2010-01-01T00:31:06Z</time>
      </trkpt>
      <trkpt lat="48.10869390" lon="7.066229350">
        <ele>1239.0000</ele>
        <time>2010-01-01T00:31:13Z</time>
      </trkpt>
      <trkpt lat="48.10877450" lon="7.066484160">
        <ele>1242.0000</ele>
        <time>2010-01-01T00:31:21Z</time>
      </trkpt>
      <trkpt lat="48.10877060" lon="7.066690440">
        <ele>1244.0000</ele>
        <time>2010-01-01T00:31:26Z</time>
      </trkpt>
      <trkpt lat="48.10866320" lon="7.066812650">
        <ele>1247.0000</ele>
        <time>2010-01-01T00:31:32Z</time>
      </trkpt>
      <trkpt lat="48.10858820" lon="7.067063860">
        <ele>1251.0000</ele>
        <time>2010-01-01T00:31:39Z</time>
      </trkpt>
      <trkpt lat="48.10846750" lon="7.067259570">
        <ele>1253.0000</ele>
        <time>2010-01-01T00:31:46Z</time>
      </trkpt>
      <trkpt lat="48.10848880" lon="7.067529970">
        <ele>1255.0000</ele>
        <time>2010-01-01T00:31:53Z</time>
      </trkpt>
      <trkpt lat="48.10853700" lon="7.067786630">
        <ele>1256.0000</ele>
        <time>2010-01-01T00:32:00Z</time>
      </trkpt>
      <trkpt lat="48.10860700" lon="7.068034230">
        <ele>1258.0000</ele>
        <time>2010-01-01T00:32:08Z</time>
      </trkpt>
      <trkpt lat="48.10861570" lon="7.068115620">
        <ele>1259.0000</ele>
        <time>2010-01-01T00:32:10Z</time>
      </trkpt>
      <trkpt lat="48.10870210" lon="7.068355170">
        <ele>1259.0000</ele>
        <time>2010-01-01T00:32:17Z</time>
      </trkpt>
      <trkpt lat="48.10880110" lon="7.068574440">
        <ele>1258.0000</ele>
        <time>2010-01-01T00:32:24Z</time>
      </trkpt>
      <trkpt lat="48.10884500" lon="7.068835370">
        <ele>1258.0000</ele>
        <time>2010-01-01T00:32:31Z</time>
      </trkpt>
      <trkpt lat="48.10888430" lon="7.069110130">
        <ele>1258.0000</ele>
        <time>2010-01-01T00:32:39Z</time>
      </trkpt>
      <trkpt lat="48.10890550" lon="7.069383710">
        <ele>1260.0000</ele>
        <time>2010-01-01T00:32:46Z</time>
      </trkpt>
      <trkpt lat="48.10893690" lon="7.069649510">
        <ele>1262.0000</ele>
        <time>2010-01-01T00:32:53Z</time>
      </trkpt>
      <trkpt lat="48.10894830" lon="7.069917810">
        <ele>1265.0000</ele>
        <time>2010-01-01T00:33:01Z</time>
      </trkpt>
      <trkpt lat="48.10897710" lon="7.070190890">
        <ele>1267.0000</ele>
        <time>2010-01-01T00:33:08Z</time>
      </trkpt>
      <trkpt lat="48.10902800" lon="7.070458780">
        <ele>1268.0000</ele>
        <time>2010-01-01T00:33:15Z</time>
      </trkpt>
      <trkpt lat="48.10908290" lon="7.070732610">
        <ele>1270.0000</ele>
        <time>2010-01-01T00:33:23Z</time>
      </trkpt>
      <trkpt lat="48.10917240" lon="7.070959090">
        <ele>1269.0000</ele>
        <time>2010-01-01T00:33:30Z</time>
      </trkpt>
      <trkpt lat="48.10924070" lon="7.071208620">
        <ele>1269.0000</ele>
        <time>2010-01-01T00:33:37Z</time>
      </trkpt>
      <trkpt lat="48.10928240" lon="7.071470310">
        <ele>1268.0000</ele>
        <time>2010-01-01T00:33:45Z</time>
      </trkpt>
      <trkpt lat="48.10932960" lon="7.071738690">
        <ele>1267.0000</ele>
        <time>2010-01-01T00:33:52Z</time>
      </trkpt>
      <trkpt lat="48.10937510" lon="7.072003390">
        <ele>1266.0000</ele>
        <time>2010-01-01T00:33:59Z</time>
      </trkpt>
      <trkpt lat="48.10943270" lon="7.072269520">
        <ele>1267.0000</ele>
        <time>2010-01-01T00:34:07Z</time>
      </trkpt>
      <trkpt lat="48.10944330" lon="7.072535980">
        <ele>1269.0000</ele>
        <time>2010-01-01T00:34:14Z</time>
      </trkpt>
      <trkpt lat="48.10948500" lon="7.072811410">
        <ele>1270.0000</ele>
        <time>2010-01-01T00:34:21Z</time>
      </trkpt>
      <trkpt lat="48.10954730" lon="7.073073510">
        <ele>1270.0000</ele>
        <time>2010-01-01T00:34:29Z</time>
      </trkpt>
      <trkpt lat="48.10958980" lon="7.073331510">
        <ele>1270.0000</ele>
        <time>2010-01-01T00:34:36Z</time>
      </trkpt>
      <trkpt lat="48.10963460" lon="7.073599140">
        <ele>1271.0000</ele>
        <time>2010-01-01T00:34:43Z</time>
      </trkpt>
      <trkpt lat="48.10970780" lon="7.073849680">
        <ele>1273.0000</ele>
        <time>2010-01-01T00:34:51Z</time>
      </trkpt>
      <trkpt lat="48.10976210" lon="7.074103230">
        <ele>1276.0000</ele>
        <time>2010-01-01T00:34:58Z</time>
      </trkpt>
      <trkpt lat="48.10979810" lon="7.074375220">
        <ele>1277.0000</ele>
        <time>2010-01-01T00:35:05Z</time>
      </trkpt>
      <trkpt lat="48.10987250" lon="7.074627010">
        <ele>1279.0000</ele>
        <time>2010-01-01T00:35:13Z</time>
      </trkpt>
      <trkpt lat="48.10997430" lon="7.074862880">
        <ele>1280.0000</ele>
        <time>2010-01-01T00:35:20Z</time>
      </trkpt>
      <trkpt lat="48.11005520" lon="7.075102770">
        <ele>1281.0000</ele>
        <time>2010-01-01T00:35:27Z</time>
      </trkpt>
      <trkpt lat="48.11013670" lon="7.075360180">
        <ele>1282.0000</ele>
        <time>2010-01-01T00:35:35Z</time>
      </trkpt>
      <trkpt lat="48.11023430" lon="7.075589420">
        <ele>1283.0000</ele>
        <time>2010-01-01T00:35:42Z</time>
      </trkpt>
      <trkpt lat="48.11032020" lon="7.075847250">
        <ele>1285.0000</ele>
        <time>2010-01-01T00:35:50Z</time>
      </trkpt>
      <trkpt lat="48.11038720" lon="7.076101980">
        <ele>1285.0000</ele>
        <time>2010-01-01T00:35:57Z</time>
      </trkpt>
      <trkpt lat="48.11045170" lon="7.076374560">
        <ele>1286.0000</ele>
        <time>2010-01-01T00:36:05Z</time>
      </trkpt>
      <trkpt lat="48.11049820" lon="7.076632640">
        <ele>1286.0000</ele>
        <time>2010-01-01T00:36:12Z</time>
      </trkpt>
      <trkpt lat="48.11055740" lon="7.076898170">
        <ele>1286.0000</ele>
        <time>2010-01-01T00:36:19Z</time>
      </trkpt>
      <trkpt lat="48.11059820" lon="7.077171090">
        <ele>1287.0000</ele>
        <time>2010-01-01T00:36:27Z</time>
      </trkpt>
      <trkpt lat="48.11065890" lon="7.077439060">
        <ele>1288.0000</ele>
        <time>2010-01-01T00:36:34Z</time>
      </trkpt>
      <trkpt lat="48.11071350" lon="7.077701580">
        <ele>1288.0000</ele>
        <time>2010-01-01T00:36:42Z</time>
      </trkpt>
      <trkpt lat="48.11079100" lon="7.077901400">
        <ele>1288.0000</ele>
        <time>2010-01-01T00:36:48Z</time>
      </trkpt>
      <trkpt lat="48.11096490" lon="7.077975840">
        <ele>1288.0000</ele>
        <time>2010-01-01T00:36:55Z</time>
      </trkpt>
      <trkpt lat="48.11099700" lon="7.077978180">
        <ele>1288.0000</ele>
        <time>2010-01-01T00:36:57Z</time>
      </trkpt>
      <trkpt lat="48.11117540" lon="7.078034510">
        <ele>1289.0000</ele>
        <time>2010-01-01T00:37:04Z</time>
      </trkpt>
      <trkpt lat="48.11135260" lon="7.078094360">
        <ele>1290.0000</ele>
        <time>2010-01-01T00:37:11Z</time>
      </trkpt>
      <trkpt lat="48.11152060" lon="7.078204240">
        <ele>1292.0000</ele>
        <time>2010-01-01T00:37:18Z</time>
      </trkpt>
      <trkpt lat="48.11163260" lon="7.078247330">
        <ele>1293.0000</ele>
        <time>2010-01-01T00:37:23Z</time>
      </trkpt>
      <trkpt lat="48.11180260" lon="7.078313790">
        <ele>1293.0000</ele>
        <time>2010-01-01T00:37:30Z</time>
      </trkpt>
      <trkpt lat="48.11198030" lon="7.078405580">
        <ele>1294.0000</ele>
        <time>2010-01-01T00:37:38Z</time>
      </trkpt>
      <trkpt lat="48.11215180" lon="7.078486460">
        <ele>1294.0000</ele>
        <time>2010-01-01T00:37:45Z</time>
      </trkpt>
      <trkpt lat="48.11231870" lon="7.078590820">
        <ele>1296.0000</ele>
        <time>2010-01-01T00:37:52Z</time>
      </trkpt>
      <trkpt lat="48.11249890" lon="7.078646720">
        <ele>1298.0000</ele>
        <time>2010-01-01T00:37:59Z</time>
      </trkpt>
      <trkpt lat="48.11266960" lon="7.078746130">
        <ele>1299.0000</ele>
        <time>2010-01-01T00:38:07Z</time>
      </trkpt>
      <trkpt lat="48.11284370" lon="7.078831210">
        <ele>1301.0000</ele>
        <time>2010-01-01T00:38:14Z</time>
      </trkpt>
      <trkpt lat="48.11301460" lon="7.078925090">
        <ele>1303.0000</ele>
        <time>2010-01-01T00:38:21Z</time>
      </trkpt>
      <trkpt lat="48.11319130" lon="7.079021390">
        <ele>1303.0000</ele>
        <time>2010-01-01T00:38:29Z</time>
      </trkpt>
      <trkpt lat="48.11336190" lon="7.079091720">
        <ele>1303.0000</ele>
        <time>2010-01-01T00:38:36Z</time>
      </trkpt>
      <trkpt lat="48.11354580" lon="7.079139410">
        <ele>1303.0000</ele>
        <time>2010-01-01T00:38:43Z</time>
      </trkpt>
      <trkpt lat="48.11371540" lon="7.079239160">
        <ele>1303.0000</ele>
        <time>2010-01-01T00:38:51Z</time>
      </trkpt>
      <trkpt lat="48.11389760" lon="7.079313340">
        <ele>1302.0000</ele>
        <time>2010-01-01T00:38:58Z</time>
      </trkpt>
      <trkpt lat="48.11406270" lon="7.079440070">
        <ele>1301.0000</ele>
        <time>2010-01-01T00:39:06Z</time>
      </trkpt>
      <trkpt lat="48.11424230" lon="7.079442080">
        <ele>1300.0000</ele>
        <time>2010-01-01T00:39:13Z</time>
      </trkpt>
      <trkpt lat="48.11442420" lon="7.079516600">
        <ele>1300.0000</ele>
        <time>2010-01-01T00:39:20Z</time>
      </trkpt>
      <trkpt lat="48.11458610" lon="7.079631930">
        <ele>1298.0000</ele>
        <time>2010-01-01T00:39:28Z</time>
      </trkpt>
      <trkpt lat="48.11475780" lon="7.079728910">
        <ele>1297.0000</ele>
        <time>2010-01-01T00:39:35Z</time>
      </trkpt>
      <trkpt lat="48.11493970" lon="7.079795460">
        <ele>1296.0000</ele>
        <time>2010-01-01T00:39:43Z</time>
      </trkpt>
      <trkpt lat="48.11512300" lon="7.079855900">
        <ele>1296.0000</ele>
        <time>2010-01-01T00:39:50Z</time>
      </trkpt>
      <trkpt lat="48.11529880" lon="7.079964530">
        <ele>1296.0000</ele>
        <time>2010-01-01T00:39:58Z</time>
      </trkpt>
      <trkpt lat="48.11546850" lon="7.080056390">
        <ele>1295.0000</ele>
        <time>2010-01-01T00:40:05Z</time>
      </trkpt>
      <trkpt lat="48.11564560" lon="7.080112630">
        <ele>1295.0000</ele>
        <time>2010-01-01T00:40:12Z</time>
      </trkpt>
      <trkpt lat="48.11582540" lon="7.080105590">
        <ele>1294.0000</ele>
        <time>2010-01-01T00:40:19Z</time>
      </trkpt>
      <trkpt lat="48.11600070" lon="7.080137610">
        <ele>1293.0000</ele>
        <time>2010-01-01T00:40:26Z</time>
      </trkpt>
      <trkpt lat="48.11615690" lon="7.080277840">
        <ele>1292.0000</ele>
        <time>2010-01-01T00:40:34Z</time>
      </trkpt>
      <trkpt lat="48.11632090" lon="7.080377840">
        <ele>1293.0000</ele>
        <time>2010-01-01T00:40:41Z</time>
      </trkpt>
      <trkpt lat="48.11643220" lon="7.080585710">
        <ele>1294.0000</ele>
        <time>2010-01-01T00:40:48Z</time>
      </trkpt>
      <trkpt lat="48.11659200" lon="7.080691660">
        <ele>1295.0000</ele>
        <time>2010-01-01T00:40:55Z</time>
      </trkpt>
      <trkpt lat="48.11676500" lon="7.080760140">
        <ele>1295.0000</ele>
        <time>2010-01-01T00:41:02Z</time>
      </trkpt>
      <trkpt lat="48.11694350" lon="7.080855860">
        <ele>1295.0000</ele>
        <time>2010-01-01T00:41:10Z</time>
      </trkpt>
      <trkpt lat="48.11711680" lon="7.080961220">
        <ele>1296.0000</ele>
        <time>2010-01-01T00:41:17Z</time>
      </trkpt>
      <trkpt lat="48.11726750" lon="7.081100780">
        <ele>1296.0000</ele>
        <time>2010-01-01T00:41:24Z</time>
      </trkpt>
      <trkpt lat="48.11743940" lon="7.081223400">
        <ele>1297.0000</ele>
        <time>2010-01-01T00:41:32Z</time>
      </trkpt>
      <trkpt lat="48.11760990" lon="7.081339330">
        <ele>1299.0000</ele>
        <time>2010-01-01T00:41:39Z</time>
      </trkpt>
      <trkpt lat="48.11776950" lon="7.081429260">
        <ele>1299.0000</ele>
        <time>2010-01-01T00:41:46Z</time>
      </trkpt>
      <trkpt lat="48.11794340" lon="7.081498670">
        <ele>1299.0000</ele>
        <time>2010-01-01T00:41:53Z</time>
      </trkpt>
      <trkpt lat="48.11811230" lon="7.081590620">
        <ele>1298.0000</ele>
        <time>2010-01-01T00:42:01Z</time>
      </trkpt>
      <trkpt lat="48.11828320" lon="7.081666970">
        <ele>1297.0000</ele>
        <time>2010-01-01T00:42:08Z</time>
      </trkpt>
      <trkpt lat="48.11846310" lon="7.081707040">
        <ele>1297.0000</ele>
        <time>2010-01-01T00:42:15Z</time>
      </trkpt>
      <trkpt lat="48.11864150" lon="7.081779380">
        <ele>1298.0000</ele>
        <time>2010-01-01T00:42:22Z</time>
      </trkpt>
      <trkpt lat="48.11878880" lon="7.081822880">
        <ele>1298.0000</ele>
        <time>2010-01-01T00:42:28Z</time>
      </trkpt>
      <trkpt lat="48.11896450" lon="7.081902170">
        <ele>1298.0000</ele>
        <time>2010-01-01T00:42:36Z</time>
      </trkpt>
      <trkpt lat="48.11912880" lon="7.082019520">
        <ele>1299.0000</ele>
        <time>2010-01-01T00:42:43Z</time>
      </trkpt>
      <trkpt lat="48.11931840" lon="7.082067380">
        <ele>1299.0000</ele>
        <time>2010-01-01T00:42:51Z</time>
      </trkpt>
      <trkpt lat="48.11950120" lon="7.082117500">
        <ele>1299.0000</ele>
        <time>2010-01-01T00:42:58Z</time>
      </trkpt>
      <trkpt lat="48.11958640" lon="7.082145920">
        <ele>1298.0000</ele>
        <time>2010-01-01T00:43:02Z</time>
      </trkpt>
      <trkpt lat="48.11975250" lon="7.082280190">
        <ele>1298.0000</ele>
        <time>2010-01-01T00:43:09Z</time>
      </trkpt>
      <trkpt lat="48.11992750" lon="7.082340210">
        <ele>1296.0000</ele>
        <time>2010-01-01T00:43:16Z</time>
      </trkpt>
      <trkpt lat="48.12008010" lon="7.082497870">
        <ele>1296.0000</ele>
        <time>2010-01-01T00:43:24Z</time>
      </trkpt>
      <trkpt lat="48.12022890" lon="7.082630140">
        <ele>1297.0000</ele>
        <time>2010-01-01T00:43:31Z</time>
      </trkpt>
      <trkpt lat="48.12040690" lon="7.082724100">
        <ele>1296.0000</ele>
        <time>2010-01-01T00:43:38Z</time>
      </trkpt>
      <trkpt lat="48.12056680" lon="7.082855110">
        <ele>1295.0000</ele>
        <time>2010-01-01T00:43:46Z</time>
      </trkpt>
      <trkpt lat="48.12063350" lon="7.082868350">
        <ele>1294.0000</ele>
        <time>2010-01-01T00:43:48Z</time>
      </trkpt>
      <trkpt lat="48.12081140" lon="7.082979580">
        <ele>1292.0000</ele>
        <time>2010-01-01T00:43:56Z</time>
      </trkpt>
      <trkpt lat="48.12099040" lon="7.083054600">
        <ele>1291.0000</ele>
        <time>2010-01-01T00:44:03Z</time>
      </trkpt>
      <trkpt lat="48.12116200" lon="7.083148140">
        <ele>1290.0000</ele>
        <time>2010-01-01T00:44:11Z</time>
      </trkpt>
      <trkpt lat="48.12132440" lon="7.083273790">
        <ele>1290.0000</ele>
        <time>2010-01-01T00:44:18Z</time>
      </trkpt>
      <trkpt lat="48.12150330" lon="7.083360790">
        <ele>1290.0000</ele>
        <time>2010-01-01T00:44:26Z</time>
      </trkpt>
      <trkpt lat="48.12167300" lon="7.083467490">
        <ele>1289.0000</ele>
        <time>2010-01-01T00:44:33Z</time>
      </trkpt>
      <trkpt lat="48.12184980" lon="7.083561200">
        <ele>1288.0000</ele>
        <time>2010-01-01T00:44:40Z</time>
      </trkpt>
      <trkpt lat="48.12203420" lon="7.083597240">
        <ele>1286.0000</ele>
        <time>2010-01-01T00:44:48Z</time>
      </trkpt>
      <trkpt lat="48.12221750" lon="7.083590030">
        <ele>1284.0000</ele>
        <time>2010-01-01T00:44:55Z</time>
      </trkpt>
      <trkpt lat="48.12239230" lon="7.083678130">
        <ele>1281.0000</ele>
        <time>2010-01-01T00:45:03Z</time>
      </trkpt>
      <trkpt lat="48.12256700" lon="7.083763290">
        <ele>1279.0000</ele>
        <time>2010-01-01T00:45:10Z</time>
      </trkpt>
      <trkpt lat="48.12274860" lon="7.083816180">
        <ele>1277.0000</ele>
        <time>2010-01-01T00:45:17Z</time>
      </trkpt>
      <trkpt lat="48.12293250" lon="7.083860600">
        <ele>1277.0000</ele>
        <time>2010-01-01T00:45:25Z</time>
      </trkpt>
      <trkpt lat="48.12310910" lon="7.083953560">
        <ele>1276.0000</ele>
        <time>2010-01-01T00:45:32Z</time>
      </trkpt>
      <trkpt lat="48.12328860" lon="7.083935370">
        <ele>1276.0000</ele>
        <time>2010-01-01T00:45:40Z</time>
      </trkpt>
      <trkpt lat="48.12347640" lon="7.083942580">
        <ele>1274.0000</ele>
        <time>2010-01-01T00:45:47Z</time>
      </trkpt>
      <trkpt lat="48.12365530" lon="7.083964870">
        <ele>1272.0000</ele>
        <time>2010-01-01T00:45:54Z</time>
      </trkpt>
      <trkpt lat="48.12383100" lon="7.084004860">
        <ele>1271.0000</ele>
        <time>2010-01-01T00:46:01Z</time>
      </trkpt>
      <trkpt lat="48.12400460" lon="7.084087750">
        <ele>1268.0000</ele>
        <time>2010-01-01T00:46:09Z</time>
      </trkpt>
      <trkpt lat="48.12418780" lon="7.084122120">
        <ele>1266.0000</ele>
        <time>2010-01-01T00:46:16Z</time>
      </trkpt>
      <trkpt lat="48.12436960" lon="7.084188170">
        <ele>1262.0000</ele>
        <time>2010-01-01T00:46:24Z</time>
      </trkpt>
      <trkpt lat="48.12447960" lon="7.084277770">
        <ele>1260.0000</ele>
        <time>2010-01-01T00:46:29Z</time>
      </trkpt>
      <trkpt lat="48.12446290" lon="7.084553450">
        <ele>1258.0000</ele>
        <time>2010-01-01T00:46:36Z</time>
      </trkpt>
      <trkpt lat="48.12444140" lon="7.084762410">
        <ele>1256.0000</ele>
        <time>2010-01-01T00:46:42Z</time>
      </trkpt>
      <trkpt lat="48.12449380" lon="7.084593350">
        <ele>1257.0000</ele>
        <time>2010-01-01T00:46:47Z</time>
      </trkpt>
      <trkpt lat="48.12454250" lon="7.084340050">
        <ele>1258.0000</ele>
        <time>2010-01-01T00:46:54Z</time>
      </trkpt>
      <trkpt lat="48.12467460" lon="7.084152960">
        <ele>1257.0000</ele>
        <time>2010-01-01T00:47:01Z</time>
      </trkpt>
      <trkpt lat="48.12476370" lon="7.084121700">
        <ele>1256.0000</ele>
        <time>2010-01-01T00:47:05Z</time>
      </trkpt>
      <trkpt lat="48.12494450" lon="7.084102500">
        <ele>1254.0000</ele>
        <time>2010-01-01T00:47:12Z</time>
      </trkpt>
      <trkpt lat="48.12512260" lon="7.084041900">
        <ele>1253.0000</ele>
        <time>2010-01-01T00:47:19Z</time>
      </trkpt>
      <trkpt lat="48.12530910" lon="7.084043750">
        <ele>1253.0000</ele>
        <time>2010-01-01T00:47:27Z</time>
      </trkpt>
      <trkpt lat="48.12548730" lon="7.084109290">
        <ele>1252.0000</ele>
        <time>2010-01-01T00:47:34Z</time>
      </trkpt>
      <trkpt lat="48.12565830" lon="7.084189340">
        <ele>1252.0000</ele>
        <time>2010-01-01T00:47:41Z</time>
      </trkpt>
      <trkpt lat="48.12582220" lon="7.084299480">
        <ele>1251.0000</ele>
        <time>2010-01-01T00:47:48Z</time>
      </trkpt>
      <trkpt lat="48.12599850" lon="7.084233510">
        <ele>1249.0000</ele>
        <time>2010-01-01T00:47:56Z</time>
      </trkpt>
      <trkpt lat="48.12617960" lon="7.084273750">
        <ele>1248.0000</ele>
        <time>2010-01-01T00:48:03Z</time>
      </trkpt>
      <trkpt lat="48.12636220" lon="7.084301320">
        <ele>1247.0000</ele>
        <time>2010-01-01T00:48:10Z</time>
      </trkpt>
      <trkpt lat="48.12654920" lon="7.084312560">
        <ele>1246.0000</ele>
        <time>2010-01-01T00:48:18Z</time>
      </trkpt>
      <trkpt lat="48.12673210" lon="7.084320180">
        <ele>1244.0000</ele>
        <time>2010-01-01T00:48:25Z</time>
      </trkpt>
      <trkpt lat="48.12692110" lon="7.084257650">
        <ele>1241.0000</ele>
        <time>2010-01-01T00:48:33Z</time>
      </trkpt>
      <trkpt lat="48.12710700" lon="7.084243820">
        <ele>1238.0000</ele>
        <time>2010-01-01T00:48:40Z</time>
      </trkpt>
      <trkpt lat="48.12729250" lon="7.084219940">
        <ele>1237.0000</ele>
        <time>2010-01-01T00:48:48Z</time>
      </trkpt>
      <trkpt lat="48.12747230" lon="7.084226050">
        <ele>1237.0000</ele>
        <time>2010-01-01T00:48:55Z</time>
      </trkpt>
      <trkpt lat="48.12764520" lon="7.084163270">
        <ele>1238.0000</ele>
        <time>2010-01-01T00:49:02Z</time>
      </trkpt>
      <trkpt lat="48.12782890" lon="7.084171910">
        <ele>1239.0000</ele>
        <time>2010-01-01T00:49:09Z</time>
      </trkpt>
      <trkpt lat="48.12801160" lon="7.084203760">
        <ele>1239.0000</ele>
        <time>2010-01-01T00:49:17Z</time>
      </trkpt>
      <trkpt lat="48.12819280" lon="7.084209710">
        <ele>1239.0000</ele>
        <time>2010-01-01T00:49:24Z</time>
      </trkpt>
      <trkpt lat="48.12837780" lon="7.084211890">
        <ele>1238.0000</ele>
        <time>2010-01-01T00:49:31Z</time>
      </trkpt>
      <trkpt lat="48.12856930" lon="7.084180460">
        <ele>1237.0000</ele>
        <time>2010-01-01T00:49:39Z</time>
      </trkpt>
      <trkpt lat="48.12875800" lon="7.084163860">
        <ele>1235.0000</ele>
        <time>2010-01-01T00:49:47Z</time>
      </trkpt>
      <trkpt lat="48.12894550" lon="7.084138380">
        <ele>1234.0000</ele>
        <time>2010-01-01T00:49:54Z</time>
      </trkpt>
      <trkpt lat="48.12911450" lon="7.084014750">
        <ele>1234.0000</ele>
        <time>2010-01-01T00:50:02Z</time>
      </trkpt>
      <trkpt lat="48.12928420" lon="7.084075600">
        <ele>1235.0000</ele>
        <time>2010-01-01T00:50:09Z</time>
      </trkpt>
      <trkpt lat="48.12936000" lon="7.084209120">
        <ele>1236.0000</ele>
        <time>2010-01-01T00:50:13Z</time>
      </trkpt>
      <trkpt lat="48.12934140" lon="7.084360920">
        <ele>1235.0000</ele>
        <time>2010-01-01T00:50:18Z</time>
      </trkpt>
      <trkpt lat="48.12924940" lon="7.084518250">
        <ele>1233.0000</ele>
        <time>2010-01-01T00:50:23Z</time>
      </trkpt>
      <trkpt lat="48.12906370" lon="7.084570800">
        <ele>1232.0000</ele>
        <time>2010-01-01T00:50:31Z</time>
      </trkpt>
      <trkpt lat="48.12888520" lon="7.084625280">
        <ele>1231.0000</ele>
        <time>2010-01-01T00:50:38Z</time>
      </trkpt>
      <trkpt lat="48.12871720" lon="7.084747910">
        <ele>1231.0000</ele>
        <time>2010-01-01T00:50:45Z</time>
      </trkpt>
      <trkpt lat="48.12854250" lon="7.084865510">
        <ele>1230.0000</ele>
        <time>2010-01-01T00:50:53Z</time>
      </trkpt>
      <trkpt lat="48.12835390" lon="7.084879340">
        <ele>1231.0000</ele>
        <time>2010-01-01T00:51:01Z</time>
      </trkpt>
      <trkpt lat="48.12817580" lon="7.084864000">
        <ele>1230.0000</ele>
        <time>2010-01-01T00:51:08Z</time>
      </trkpt>
      <trkpt lat="48.12799860" lon="7.084796190">
        <ele>1231.0000</ele>
        <time>2010-01-01T00:51:15Z</time>
      </trkpt>
      <trkpt lat="48.12782790" lon="7.084705750">
        <ele>1232.0000</ele>
        <time>2010-01-01T00:51:22Z</time>
      </trkpt>
      <trkpt lat="48.12771490" lon="7.084653280">
        <ele>1232.0000</ele>
        <time>2010-01-01T00:51:27Z</time>
      </trkpt>
      <trkpt lat="48.12753930" lon="7.084587730">
        <ele>1233.0000</ele>
        <time>2010-01-01T00:51:34Z</time>
      </trkpt>
      <trkpt lat="48.12735990" lon="7.084545070">
        <ele>1235.0000</ele>
        <time>2010-01-01T00:51:42Z</time>
      </trkpt>
      <trkpt lat="48.12718070" lon="7.084564260">
        <ele>1235.0000</ele>
        <time>2010-01-01T00:51:49Z</time>
      </trkpt>
      <trkpt lat="48.12703640" lon="7.084709690">
        <ele>1236.0000</ele>
        <time>2010-01-01T00:51:56Z</time>
      </trkpt>
      <trkpt lat="48.12685480" lon="7.084771880">
        <ele>1238.0000</ele>
        <time>2010-01-01T00:52:03Z</time>
      </trkpt>
      <trkpt lat="48.12667540" lon="7.084799460">
        <ele>1242.0000</ele>
        <time>2010-01-01T00:52:10Z</time>
      </trkpt>
      <trkpt lat="48.12650800" lon="7.084830720">
        <ele>1243.0000</ele>
        <time>2010-01-01T00:52:17Z</time>
      </trkpt>
      <trkpt lat="48.12632880" lon="7.084875570">
        <ele>1244.0000</ele>
        <time>2010-01-01T00:52:25Z</time>
      </trkpt>
      <trkpt lat="48.12614760" lon="7.084905410">
        <ele>1244.0000</ele>
        <time>2010-01-01T00:52:32Z</time>
      </trkpt>
      <trkpt lat="48.12597000" lon="7.084952510">
        <ele>1244.0000</ele>
        <time>2010-01-01T00:52:39Z</time>
      </trkpt>
      <trkpt lat="48.12596040" lon="7.084952930">
        <ele>1244.0000</ele>
        <time>2010-01-01T00:52:39Z</time>
      </trkpt>
      <trkpt lat="48.12594480" lon="7.084952260">
        <ele>1244.0000</ele>
        <time>2010-01-01T00:52:40Z</time>
      </trkpt>
      <trkpt lat="48.12578180" lon="7.084876910">
        <ele>1244.0000</ele>
        <time>2010-01-01T00:52:47Z</time>
      </trkpt>
      <trkpt lat="48.12572580" lon="7.084790660">
        <ele>1246.0000</ele>
        <time>2010-01-01T00:52:50Z</time>
      </trkpt>
      <trkpt lat="48.12556190" lon="7.084705410">
        <ele>1247.0000</ele>
        <time>2010-01-01T00:52:57Z</time>
      </trkpt>
      <trkpt lat="48.12538950" lon="7.084658220">
        <ele>1246.0000</ele>
        <time>2010-01-01T00:53:04Z</time>
      </trkpt>
      <trkpt lat="48.12520320" lon="7.084625450">
        <ele>1246.0000</ele>
        <time>2010-01-01T00:53:12Z</time>
      </trkpt>
      <trkpt lat="48.12502310" lon="7.084610110">
        <ele>1246.0000</ele>
        <time>2010-01-01T00:53:19Z</time>
      </trkpt>
      <trkpt lat="48.12483840" lon="7.084604500">
        <ele>1249.0000</ele>
        <time>2010-01-01T00:53:26Z</time>
      </trkpt>
      <trkpt lat="48.12465740" lon="7.084681860">
        <ele>1252.0000</ele>
        <time>2010-01-01T00:53:34Z</time>
      </trkpt>
      <trkpt lat="48.12448600" lon="7.084769200">
        <ele>1255.0000</ele>
        <time>2010-01-01T00:53:41Z</time>
      </trkpt>
      <trkpt lat="48.12431370" lon="7.084865680">
        <ele>1258.0000</ele>
        <time>2010-01-01T00:53:48Z</time>
      </trkpt>
      <trkpt lat="48.12424700" lon="7.085090980">
        <ele>1257.0000</ele>
        <time>2010-01-01T00:53:55Z</time>
      </trkpt>
      <trkpt lat="48.12423680" lon="7.085328690">
        <ele>1254.0000</ele>
        <time>2010-01-01T00:54:01Z</time>
      </trkpt>
      <trkpt lat="48.12410260" lon="7.085438920">
        <ele>1254.0000</ele>
        <time>2010-01-01T00:54:07Z</time>
      </trkpt>
      <trkpt lat="48.12397910" lon="7.085420390">
        <ele>1257.0000</ele>
        <time>2010-01-01T00:54:12Z</time>
      </trkpt>
      <trkpt lat="48.12387830" lon="7.085400860">
        <ele>1259.0000</ele>
        <time>2010-01-01T00:54:16Z</time>
      </trkpt>
      <trkpt lat="48.12370220" lon="7.085363900">
        <ele>1263.0000</ele>
        <time>2010-01-01T00:54:24Z</time>
      </trkpt>
      <trkpt lat="48.12350950" lon="7.085378230">
        <ele>1265.0000</ele>
        <time>2010-01-01T00:54:31Z</time>
      </trkpt>
      <trkpt lat="48.12332100" lon="7.085400610">
        <ele>1267.0000</ele>
        <time>2010-01-01T00:54:39Z</time>
      </trkpt>
      <trkpt lat="48.12314230" lon="7.085353080">
        <ele>1269.0000</ele>
        <time>2010-01-01T00:54:46Z</time>
      </trkpt>
      <trkpt lat="48.12295680" lon="7.085328440">
        <ele>1271.0000</ele>
        <time>2010-01-01T00:54:54Z</time>
      </trkpt>
      <trkpt lat="48.12277730" lon="7.085330450">
        <ele>1270.0000</ele>
        <time>2010-01-01T00:55:01Z</time>
      </trkpt>
      <trkpt lat="48.12259890" lon="7.085338330">
        <ele>1271.0000</ele>
        <time>2010-01-01T00:55:08Z</time>
      </trkpt>
      <trkpt lat="48.12242960" lon="7.085429860">
        <ele>1270.0000</ele>
        <time>2010-01-01T00:55:15Z</time>
      </trkpt>
      <trkpt lat="48.12225180" lon="7.085468000">
        <ele>1269.0000</ele>
        <time>2010-01-01T00:55:22Z</time>
      </trkpt>
      <trkpt lat="48.12208550" lon="7.085403630">
        <ele>1273.0000</ele>
        <time>2010-01-01T00:55:29Z</time>
      </trkpt>
      <trkpt lat="48.12191920" lon="7.085308070">
        <ele>1277.0000</ele>
        <time>2010-01-01T00:55:36Z</time>
      </trkpt>
      <trkpt lat="48.12173170" lon="7.085324330">
        <ele>1280.0000</ele>
        <time>2010-01-01T00:55:44Z</time>
      </trkpt>
      <trkpt lat="48.12157700" lon="7.085441770">
        <ele>1279.0000</ele>
        <time>2010-01-01T00:55:51Z</time>
      </trkpt>
      <trkpt lat="48.12150540" lon="7.085686520">
        <ele>1275.0000</ele>
        <time>2010-01-01T00:55:58Z</time>
      </trkpt>
      <trkpt lat="48.12141520" lon="7.085900170">
        <ele>1270.0000</ele>
        <time>2010-01-01T00:56:05Z</time>
      </trkpt>
      <trkpt lat="48.12123700" lon="7.085857090">
        <ele>1274.0000</ele>
        <time>2010-01-01T00:56:12Z</time>
      </trkpt>
      <trkpt lat="48.12104700" lon="7.085834620">
        <ele>1277.0000</ele>
        <time>2010-01-01T00:56:20Z</time>
      </trkpt>
      <trkpt lat="48.12086000" lon="7.085796240">
        <ele>1278.0000</ele>
        <time>2010-01-01T00:56:27Z</time>
      </trkpt>
      <trkpt lat="48.12067700" lon="7.085765560">
        <ele>1280.0000</ele>
        <time>2010-01-01T00:56:34Z</time>
      </trkpt>
      <trkpt lat="48.12059780" lon="7.085752060">
        <ele>1281.0000</ele>
        <time>2010-01-01T00:56:38Z</time>
      </trkpt>
      <trkpt lat="48.12044100" lon="7.085639580">
        <ele>1283.0000</ele>
        <time>2010-01-01T00:56:45Z</time>
      </trkpt>
      <trkpt lat="48.12032720" lon="7.085762120">
        <ele>1281.0000</ele>
        <time>2010-01-01T00:56:50Z</time>
      </trkpt>
      <trkpt lat="48.12026430" lon="7.085951970">
        <ele>1280.0000</ele>
        <time>2010-01-01T00:56:56Z</time>
      </trkpt>
      <trkpt lat="48.12031910" lon="7.086188510">
        <ele>1277.0000</ele>
        <time>2010-01-01T00:57:03Z</time>
      </trkpt>
      <trkpt lat="48.12038180" lon="7.086439210">
        <ele>1272.0000</ele>
        <time>2010-01-01T00:57:10Z</time>
      </trkpt>
      <trkpt lat="48.12041490" lon="7.086709530">
        <ele>1269.0000</ele>
        <time>2010-01-01T00:57:17Z</time>
      </trkpt>
      <trkpt lat="48.12047890" lon="7.086968700">
        <ele>1266.0000</ele>
        <time>2010-01-01T00:57:24Z</time>
      </trkpt>
      <trkpt lat="48.12053090" lon="7.087235660">
        <ele>1265.0000</ele>
        <time>2010-01-01T00:57:32Z</time>
      </trkpt>
      <trkpt lat="48.12057930" lon="7.087510590">
        <ele>1264.0000</ele>
        <time>2010-01-01T00:57:39Z</time>
      </trkpt>
      <trkpt lat="48.12059480" lon="7.087767990">
        <ele>1265.0000</ele>
        <time>2010-01-01T00:57:46Z</time>
      </trkpt>
      <trkpt lat="48.12061390" lon="7.088051720">
        <ele>1266.0000</ele>
        <time>2010-01-01T00:57:54Z</time>
      </trkpt>
      <trkpt lat="48.12061440" lon="7.088338470">
        <ele>1265.0000</ele>
        <time>2010-01-01T00:58:02Z</time>
      </trkpt>
      <trkpt lat="48.12063350" lon="7.088616660">
        <ele>1265.0000</ele>
        <time>2010-01-01T00:58:09Z</time>
      </trkpt>
      <trkpt lat="48.12064230" lon="7.088888990">
        <ele>1265.0000</ele>
        <time>2010-01-01T00:58:16Z</time>
      </trkpt>
      <trkpt lat="48.12066770" lon="7.089170450">
        <ele>1263.0000</ele>
        <time>2010-01-01T00:58:24Z</time>
      </trkpt>
      <trkpt lat="48.12073080" lon="7.089444120">
        <ele>1260.0000</ele>
        <time>2010-01-01T00:58:32Z</time>
      </trkpt>
      <trkpt lat="48.12074330" lon="7.089723320">
        <ele>1262.0000</ele>
        <time>2010-01-01T00:58:39Z</time>
      </trkpt>
      <trkpt lat="48.12074280" lon="7.090009230">
        <ele>1263.0000</ele>
        <time>2010-01-01T00:58:47Z</time>
      </trkpt>
      <trkpt lat="48.12077390" lon="7.090293960">
        <ele>1263.0000</ele>
        <time>2010-01-01T00:58:55Z</time>
      </trkpt>
      <trkpt lat="48.12083760" lon="7.090560340">
        <ele>1261.0000</ele>
        <time>2010-01-01T00:59:02Z</time>
      </trkpt>
      <trkpt lat="48.12087600" lon="7.090829820">
        <ele>1261.0000</ele>
        <time>2010-01-01T00:59:09Z</time>
      </trkpt>
      <trkpt lat="48.12085730" lon="7.091108600">
        <ele>1261.0000</ele>
        <time>2010-01-01T00:59:17Z</time>
      </trkpt>
      <trkpt lat="48.12088660" lon="7.091373300">
        <ele>1259.0000</ele>
        <time>2010-01-01T00:59:24Z</time>
      </trkpt>
      <trkpt lat="48.12089980" lon="7.091644880">
        <ele>1258.0000</ele>
        <time>2010-01-01T00:59:31Z</time>
      </trkpt>
      <trkpt lat="48.12092950" lon="7.091782590">
        <ele>1256.0000</ele>
        <time>2010-01-01T00:59:35Z</time>
      </trkpt>
      <trkpt lat="48.12096560" lon="7.092041680">
        <ele>1254.0000</ele>
        <time>2010-01-01T00:59:42Z</time>
      </trkpt>
      <trkpt lat="48.12101940" lon="7.092077050">
        <ele>1251.0000</ele>
        <time>2010-01-01T00:59:45Z</time>
      </trkpt>
      <trkpt lat="48.12102330" lon="7.092077470">
        <ele>1251.0000</ele>
        <time>2010-01-01T00:59:45Z</time>
      </trkpt>
      <trkpt lat="48.12114480" lon="7.092260190">
        <ele>1246.0000</ele>
        <time>2010-01-01T00:59:52Z</time>
      </trkpt>
      <trkpt lat="48.12131230" lon="7.092402940">
        <ele>1240.0000</ele>
        <time>2010-01-01T00:59:59Z</time>
      </trkpt>
      <trkpt lat="48.12146190" lon="7.092522460">
        <ele>1235.0000</ele>
        <time>2010-01-01T01:00:06Z</time>
      </trkpt>
      <trkpt lat="48.12163730" lon="7.092475100">
        <ele>1230.0000</ele>
        <time>2010-01-01T01:00:13Z</time>
      </trkpt>
      <trkpt lat="48.12176640" lon="7.092655400">
        <ele>1227.0000</ele>
        <time>2010-01-01T01:00:20Z</time>
      </trkpt>
      <trkpt lat="48.12164060" lon="7.092814240">
        <ele>1232.0000</ele>
        <time>2010-01-01T01:00:27Z</time>
      </trkpt>
      <trkpt lat="48.12157210" lon="7.092959830">
        <ele>1232.0000</ele>
        <time>2010-01-01T01:00:32Z</time>
      </trkpt>
      <trkpt lat="48.12168680" lon="7.092798140">
        <ele>1231.0000</ele>
        <time>2010-01-01T01:00:38Z</time>
      </trkpt>
      <trkpt lat="48.12185600" lon="7.092852040">
        <ele>1224.0000</ele>
        <time>2010-01-01T01:00:45Z</time>
      </trkpt>
      <trkpt lat="48.12193590" lon="7.093036860">
        <ele>1221.0000</ele>
        <time>2010-01-01T01:00:51Z</time>
      </trkpt>
      <trkpt lat="48.12193780" lon="7.093213550">
        <ele>1219.0000</ele>
        <time>2010-01-01T01:00:56Z</time>
      </trkpt>
      <trkpt lat="48.12201970" lon="7.093301730">
        <ele>1214.0000</ele>
        <time>2010-01-01T01:01:00Z</time>
      </trkpt>
      <trkpt lat="48.12212990" lon="7.093352860">
        <ele>1208.0000</ele>
        <time>2010-01-01T01:01:04Z</time>
      </trkpt>
      <trkpt lat="48.12227550" lon="7.093384620">
        <ele>1201.0000</ele>
        <time>2010-01-01T01:01:10Z</time>
      </trkpt>
      <trkpt lat="48.12241500" lon="7.093498200">
        <ele>1192.0000</ele>
        <time>2010-01-01T01:01:17Z</time>
      </trkpt>
      <trkpt lat="48.12256250" lon="7.093614790">
        <ele>1185.0000</ele>
        <time>2010-01-01T01:01:23Z</time>
      </trkpt>
      <trkpt lat="48.12265180" lon="7.093773210">
        <ele>1182.0000</ele>
        <time>2010-01-01T01:01:29Z</time>
      </trkpt>
      <trkpt lat="48.12277340" lon="7.093608670">
        <ele>1176.0000</ele>
        <time>2010-01-01T01:01:35Z</time>
      </trkpt>
      <trkpt lat="48.12281850" lon="7.093375320">
        <ele>1172.0000</ele>
        <time>2010-01-01T01:01:42Z</time>
      </trkpt>
      <trkpt lat="48.12295230" lon="7.093183040">
        <ele>1159.0000</ele>
        <time>2010-01-01T01:01:49Z</time>
      </trkpt>
      <trkpt lat="48.12299030" lon="7.093085640">
        <ele>1155.0000</ele>
        <time>2010-01-01T01:01:52Z</time>
      </trkpt>
      <trkpt lat="48.12305880" lon="7.093292590">
        <ele>1152.0000</ele>
        <time>2010-01-01T01:01:58Z</time>
      </trkpt>
      <trkpt lat="48.12307560" lon="7.093450920">
        <ele>1152.0000</ele>
        <time>2010-01-01T01:02:03Z</time>
      </trkpt>
      <trkpt lat="48.12309390" lon="7.093709840">
        <ele>1155.0000</ele>
        <time>2010-01-01T01:02:10Z</time>
      </trkpt>
      <trkpt lat="48.12319900" lon="7.093894830">
        <ele>1149.0000</ele>
        <time>2010-01-01T01:02:16Z</time>
      </trkpt>
      <trkpt lat="48.12332340" lon="7.094089960">
        <ele>1138.0000</ele>
        <time>2010-01-01T01:02:23Z</time>
      </trkpt>
      <trkpt lat="48.12341240" lon="7.094318370">
        <ele>1133.0000</ele>
        <time>2010-01-01T01:02:30Z</time>
      </trkpt>
      <trkpt lat="48.12345730" lon="7.094417440">
        <ele>1131.0000</ele>
        <time>2010-01-01T01:02:34Z</time>
      </trkpt>
      <trkpt lat="48.12347990" lon="7.094654820">
        <ele>1131.0000</ele>
        <time>2010-01-01T01:02:40Z</time>
      </trkpt>
      <trkpt lat="48.12346880" lon="7.094875180">
        <ele>1132.0000</ele>
        <time>2010-01-01T01:02:46Z</time>
      </trkpt>
      <trkpt lat="48.12359210" lon="7.095099810">
        <ele>1127.0000</ele>
        <time>2010-01-01T01:02:54Z</time>
      </trkpt>
      <trkpt lat="48.12367160" lon="7.095333000">
        <ele>1123.0000</ele>
        <time>2010-01-01T01:03:01Z</time>
      </trkpt>
      <trkpt lat="48.12357880" lon="7.095443550">
        <ele>1129.0000</ele>
        <time>2010-01-01T01:03:05Z</time>
      </trkpt>
      <trkpt lat="48.12362590" lon="7.095599040">
        <ele>1127.0000</ele>
        <time>2010-01-01T01:03:10Z</time>
      </trkpt>
      <trkpt lat="48.12379610" lon="7.095716550">
        <ele>1117.0000</ele>
        <time>2010-01-01T01:03:18Z</time>
      </trkpt>
      <trkpt lat="48.12375360" lon="7.095901040">
        <ele>1117.0000</ele>
        <time>2010-01-01T01:03:23Z</time>
      </trkpt>
      <trkpt lat="48.12376800" lon="7.096070270">
        <ele>1113.0000</ele>
        <time>2010-01-01T01:03:27Z</time>
      </trkpt>
      <trkpt lat="48.12382370" lon="7.096065160">
        <ele>1111.0000</ele>
        <time>2010-01-01T01:03:30Z</time>
      </trkpt>
      <trkpt lat="48.12400390" lon="7.095989550">
        <ele>1103.0000</ele>
        <time>2010-01-01T01:03:37Z</time>
      </trkpt>
      <trkpt lat="48.12414590" lon="7.095832060">
        <ele>1093.0000</ele>
        <time>2010-01-01T01:03:44Z</time>
      </trkpt>
      <trkpt lat="48.12415440" lon="7.095824180">
        <ele>1092.0000</ele>
        <time>2010-01-01T01:03:44Z</time>
      </trkpt>
      <trkpt lat="48.12427840" lon="7.095964910">
        <ele>1086.0000</ele>
        <time>2010-01-01T01:03:51Z</time>
      </trkpt>
      <trkpt lat="48.12440450" lon="7.096008830">
        <ele>1078.0000</ele>
        <time>2010-01-01T01:03:56Z</time>
      </trkpt>
      <trkpt lat="48.12450440" lon="7.095948560">
        <ele>1072.0000</ele>
        <time>2010-01-01T01:04:00Z</time>
      </trkpt>
      <trkpt lat="48.12460240" lon="7.096145790">
        <ele>1068.0000</ele>
        <time>2010-01-01T01:04:07Z</time>
      </trkpt>
      <trkpt lat="48.12467240" lon="7.096288700">
        <ele>1064.0000</ele>
        <time>2010-01-01T01:04:12Z</time>
      </trkpt>
      <trkpt lat="48.12466890" lon="7.096302110">
        <ele>1065.0000</ele>
        <time>2010-01-01T01:04:12Z</time>
      </trkpt>
      <trkpt lat="48.12481270" lon="7.096209070">
        <ele>1059.0000</ele>
        <time>2010-01-01T01:04:18Z</time>
      </trkpt>
      <trkpt lat="48.12497730" lon="7.096222740">
        <ele>1055.0000</ele>
        <time>2010-01-01T01:04:25Z</time>
      </trkpt>
      <trkpt lat="48.12510800" lon="7.096429600">
        <ele>1056.0000</ele>
        <time>2010-01-01T01:04:32Z</time>
      </trkpt>
      <trkpt lat="48.12518790" lon="7.096675610">
        <ele>1057.0000</ele>
        <time>2010-01-01T01:04:40Z</time>
      </trkpt>
      <trkpt lat="48.12516500" lon="7.096865710">
        <ele>1057.0000</ele>
        <time>2010-01-01T01:04:45Z</time>
      </trkpt>
    </trkseg>
  </trk>
</gpx>

